<?xml version="1.0" encoding="UTF-8" standalone="no" ?>
<gpx xmlns="http://www.topografix.com/GPX/1/1" xmlns:xsi="http://www.w3.org/2001/XMLSchema-instance" xsi:schemaLocation="http://www.topografix.com/GPX/1/1 http://www.topografix.com/GPX/1/1/gpx.xsd" version="1.1" creator="VisuGPX - https://www.visugpx.com">
  <metadata>
    <name>Andel Cyclisme</name>
    <desc><![CDATA[championnat de Bretagne 2020]]></desc>
  </metadata>
  <trk>
    <name><![CDATA[Andel Cyclisme]]></name>
    <trkseg>
      <trkpt lat="48.48909" lon="-2.56985">
        <ele>57.599998474121</ele>
        <time>2020-02-07T09:08:09.000Z</time>
      </trkpt>
      <trkpt lat="48.48909" lon="-2.56985">
        <ele>57.599998474121</ele>
        <time>2020-02-07T09:08:12.000Z</time>
      </trkpt>
      <trkpt lat="48.48909" lon="-2.56985">
        <ele>59.200000762939</ele>
        <time>2020-02-07T09:08:13.000Z</time>
      </trkpt>
      <trkpt lat="48.4891" lon="-2.56987">
        <ele>59.200000762939</ele>
        <time>2020-02-07T09:08:14.000Z</time>
      </trkpt>
      <trkpt lat="48.48912" lon="-2.56987">
        <ele>59.200000762939</ele>
        <time>2020-02-07T09:08:15.000Z</time>
      </trkpt>
      <trkpt lat="48.48914" lon="-2.56981">
        <ele>59.200000762939</ele>
        <time>2020-02-07T09:08:18.000Z</time>
      </trkpt>
      <trkpt lat="48.48914" lon="-2.56978">
        <ele>59.200000762939</ele>
        <time>2020-02-07T09:08:19.000Z</time>
      </trkpt>
      <trkpt lat="48.48913" lon="-2.56957">
        <ele>59.200000762939</ele>
        <time>2020-02-07T09:08:25.000Z</time>
      </trkpt>
      <trkpt lat="48.48908" lon="-2.56941">
        <ele>59.200000762939</ele>
        <time>2020-02-07T09:08:31.000Z</time>
      </trkpt>
      <trkpt lat="48.48895" lon="-2.5694">
        <ele>59.200000762939</ele>
        <time>2020-02-07T09:08:36.000Z</time>
      </trkpt>
      <trkpt lat="48.4888" lon="-2.56935">
        <ele>59.200000762939</ele>
        <time>2020-02-07T09:08:43.000Z</time>
      </trkpt>
      <trkpt lat="48.48863" lon="-2.5693">
        <ele>59.200000762939</ele>
        <time>2020-02-07T09:08:51.000Z</time>
      </trkpt>
      <trkpt lat="48.48849" lon="-2.56925">
        <ele>59.200000762939</ele>
        <time>2020-02-07T09:08:58.000Z</time>
      </trkpt>
      <trkpt lat="48.48838" lon="-2.56922">
        <ele>59.200000762939</ele>
        <time>2020-02-07T09:09:06.000Z</time>
      </trkpt>
      <trkpt lat="48.48835" lon="-2.5692">
        <ele>59.200000762939</ele>
        <time>2020-02-07T09:09:12.000Z</time>
      </trkpt>
      <trkpt lat="48.48835" lon="-2.5692">
        <ele>59.200000762939</ele>
        <time>2020-02-07T09:09:24.000Z</time>
      </trkpt>
      <trkpt lat="48.48835" lon="-2.5692">
        <ele>59.200000762939</ele>
        <time>2020-02-07T09:09:38.000Z</time>
      </trkpt>
      <trkpt lat="48.48835" lon="-2.5692">
        <ele>59.200000762939</ele>
        <time>2020-02-07T09:09:51.000Z</time>
      </trkpt>
      <trkpt lat="48.48835" lon="-2.5692">
        <ele>59.200000762939</ele>
        <time>2020-02-07T09:10:02.000Z</time>
      </trkpt>
      <trkpt lat="48.48835" lon="-2.5692">
        <ele>59.200000762939</ele>
        <time>2020-02-07T09:10:13.000Z</time>
      </trkpt>
      <trkpt lat="48.48835" lon="-2.5692">
        <ele>59.200000762939</ele>
        <time>2020-02-07T09:10:27.000Z</time>
      </trkpt>
      <trkpt lat="48.48835" lon="-2.5692">
        <ele>59.200000762939</ele>
        <time>2020-02-07T09:10:42.000Z</time>
      </trkpt>
      <trkpt lat="48.48835" lon="-2.5692">
        <ele>59.200000762939</ele>
        <time>2020-02-07T09:10:57.000Z</time>
      </trkpt>
      <trkpt lat="48.48835" lon="-2.5692">
        <ele>59.200000762939</ele>
        <time>2020-02-07T09:11:12.000Z</time>
      </trkpt>
      <trkpt lat="48.48835" lon="-2.5692">
        <ele>59.200000762939</ele>
        <time>2020-02-07T09:11:30.000Z</time>
      </trkpt>
      <trkpt lat="48.48832" lon="-2.56917">
        <ele>59.200000762939</ele>
        <time>2020-02-07T09:11:38.000Z</time>
      </trkpt>
      <trkpt lat="48.48828" lon="-2.56913">
        <ele>59.200000762939</ele>
        <time>2020-02-07T09:11:43.000Z</time>
      </trkpt>
      <trkpt lat="48.48827" lon="-2.56912">
        <ele>59.200000762939</ele>
        <time>2020-02-07T09:11:44.000Z</time>
      </trkpt>
      <trkpt lat="48.48828" lon="-2.56907">
        <ele>59.200000762939</ele>
        <time>2020-02-07T09:11:48.000Z</time>
      </trkpt>
      <trkpt lat="48.48828" lon="-2.56906">
        <ele>59.200000762939</ele>
        <time>2020-02-07T09:11:50.000Z</time>
      </trkpt>
      <trkpt lat="48.48826" lon="-2.56903">
        <ele>59.200000762939</ele>
        <time>2020-02-07T09:11:55.000Z</time>
      </trkpt>
      <trkpt lat="48.48824" lon="-2.56903">
        <ele>59.200000762939</ele>
        <time>2020-02-07T09:11:56.000Z</time>
      </trkpt>
      <trkpt lat="48.48815" lon="-2.56894">
        <ele>59.200000762939</ele>
        <time>2020-02-07T09:12:02.000Z</time>
      </trkpt>
      <trkpt lat="48.48807" lon="-2.5688">
        <ele>59.200000762939</ele>
        <time>2020-02-07T09:12:08.000Z</time>
      </trkpt>
      <trkpt lat="48.48805" lon="-2.56872">
        <ele>59.200000762939</ele>
        <time>2020-02-07T09:12:11.000Z</time>
      </trkpt>
      <trkpt lat="48.48807" lon="-2.56865">
        <ele>59.200000762939</ele>
        <time>2020-02-07T09:12:14.000Z</time>
      </trkpt>
      <trkpt lat="48.48807" lon="-2.56862">
        <ele>59.200000762939</ele>
        <time>2020-02-07T09:12:15.000Z</time>
      </trkpt>
      <trkpt lat="48.48803" lon="-2.56854">
        <ele>59.200000762939</ele>
        <time>2020-02-07T09:12:19.000Z</time>
      </trkpt>
      <trkpt lat="48.48802" lon="-2.56851">
        <ele>59.200000762939</ele>
        <time>2020-02-07T09:12:20.000Z</time>
      </trkpt>
      <trkpt lat="48.488" lon="-2.56849">
        <ele>58.799999237061</ele>
        <time>2020-02-07T09:12:21.000Z</time>
      </trkpt>
      <trkpt lat="48.48799" lon="-2.56845">
        <ele>58.400001525879</ele>
        <time>2020-02-07T09:12:22.000Z</time>
      </trkpt>
      <trkpt lat="48.48798" lon="-2.56841">
        <ele>58</ele>
        <time>2020-02-07T09:12:23.000Z</time>
      </trkpt>
      <trkpt lat="48.48797" lon="-2.56837">
        <ele>57.599998474121</ele>
        <time>2020-02-07T09:12:24.000Z</time>
      </trkpt>
      <trkpt lat="48.48797" lon="-2.56833">
        <ele>57.200000762939</ele>
        <time>2020-02-07T09:12:25.000Z</time>
      </trkpt>
      <trkpt lat="48.488" lon="-2.56819">
        <ele>57.200000762939</ele>
        <time>2020-02-07T09:12:30.000Z</time>
      </trkpt>
      <trkpt lat="48.48806" lon="-2.56798">
        <ele>57.200000762939</ele>
        <time>2020-02-07T09:12:38.000Z</time>
      </trkpt>
      <trkpt lat="48.48806" lon="-2.56793">
        <ele>57.200000762939</ele>
        <time>2020-02-07T09:12:40.000Z</time>
      </trkpt>
      <trkpt lat="48.48803" lon="-2.56789">
        <ele>57.200000762939</ele>
        <time>2020-02-07T09:12:42.000Z</time>
      </trkpt>
      <trkpt lat="48.48796" lon="-2.56787">
        <ele>57.200000762939</ele>
        <time>2020-02-07T09:12:45.000Z</time>
      </trkpt>
      <trkpt lat="48.48789" lon="-2.56785">
        <ele>56.799999237061</ele>
        <time>2020-02-07T09:12:47.000Z</time>
      </trkpt>
      <trkpt lat="48.48785" lon="-2.56784">
        <ele>56.200000762939</ele>
        <time>2020-02-07T09:12:48.000Z</time>
      </trkpt>
      <trkpt lat="48.4878" lon="-2.56783">
        <ele>55.799999237061</ele>
        <time>2020-02-07T09:12:49.000Z</time>
      </trkpt>
      <trkpt lat="48.48776" lon="-2.56781">
        <ele>55.400001525879</ele>
        <time>2020-02-07T09:12:50.000Z</time>
      </trkpt>
      <trkpt lat="48.48773" lon="-2.5678">
        <ele>55</ele>
        <time>2020-02-07T09:12:51.000Z</time>
      </trkpt>
      <trkpt lat="48.48766" lon="-2.56777">
        <ele>54.400001525879</ele>
        <time>2020-02-07T09:12:53.000Z</time>
      </trkpt>
      <trkpt lat="48.48764" lon="-2.56776">
        <ele>54</ele>
        <time>2020-02-07T09:12:54.000Z</time>
      </trkpt>
      <trkpt lat="48.48762" lon="-2.56774">
        <ele>53.599998474121</ele>
        <time>2020-02-07T09:12:55.000Z</time>
      </trkpt>
      <trkpt lat="48.48761" lon="-2.56771">
        <ele>53</ele>
        <time>2020-02-07T09:12:56.000Z</time>
      </trkpt>
      <trkpt lat="48.4876" lon="-2.56768">
        <ele>52.599998474121</ele>
        <time>2020-02-07T09:12:57.000Z</time>
      </trkpt>
      <trkpt lat="48.48761" lon="-2.56764">
        <ele>52.200000762939</ele>
        <time>2020-02-07T09:12:58.000Z</time>
      </trkpt>
      <trkpt lat="48.4876" lon="-2.56761">
        <ele>51.799999237061</ele>
        <time>2020-02-07T09:12:59.000Z</time>
      </trkpt>
      <trkpt lat="48.4876" lon="-2.56758">
        <ele>51.200000762939</ele>
        <time>2020-02-07T09:13:00.000Z</time>
      </trkpt>
      <trkpt lat="48.4876" lon="-2.56756">
        <ele>50.799999237061</ele>
        <time>2020-02-07T09:13:01.000Z</time>
      </trkpt>
      <trkpt lat="48.48759" lon="-2.56754">
        <ele>50.400001525879</ele>
        <time>2020-02-07T09:13:02.000Z</time>
      </trkpt>
      <trkpt lat="48.48758" lon="-2.56752">
        <ele>50.400001525879</ele>
        <time>2020-02-07T09:13:03.000Z</time>
      </trkpt>
      <trkpt lat="48.48756" lon="-2.56748">
        <ele>50.400001525879</ele>
        <time>2020-02-07T09:13:05.000Z</time>
      </trkpt>
      <trkpt lat="48.48755" lon="-2.56747">
        <ele>50</ele>
        <time>2020-02-07T09:13:06.000Z</time>
      </trkpt>
      <trkpt lat="48.48752" lon="-2.56747">
        <ele>49.599998474121</ele>
        <time>2020-02-07T09:13:07.000Z</time>
      </trkpt>
      <trkpt lat="48.4875" lon="-2.56748">
        <ele>49.200000762939</ele>
        <time>2020-02-07T09:13:08.000Z</time>
      </trkpt>
      <trkpt lat="48.48749" lon="-2.56748">
        <ele>48.599998474121</ele>
        <time>2020-02-07T09:13:09.000Z</time>
      </trkpt>
      <trkpt lat="48.48748" lon="-2.5675">
        <ele>48.200000762939</ele>
        <time>2020-02-07T09:13:10.000Z</time>
      </trkpt>
      <trkpt lat="48.48747" lon="-2.56752">
        <ele>48.200000762939</ele>
        <time>2020-02-07T09:13:11.000Z</time>
      </trkpt>
      <trkpt lat="48.48745" lon="-2.56757">
        <ele>48.200000762939</ele>
        <time>2020-02-07T09:13:13.000Z</time>
      </trkpt>
      <trkpt lat="48.48743" lon="-2.56764">
        <ele>48.200000762939</ele>
        <time>2020-02-07T09:13:15.000Z</time>
      </trkpt>
      <trkpt lat="48.48739" lon="-2.56775">
        <ele>48.200000762939</ele>
        <time>2020-02-07T09:13:19.000Z</time>
      </trkpt>
      <trkpt lat="48.48734" lon="-2.56788">
        <ele>48.200000762939</ele>
        <time>2020-02-07T09:13:24.000Z</time>
      </trkpt>
      <trkpt lat="48.48731" lon="-2.56798">
        <ele>48.200000762939</ele>
        <time>2020-02-07T09:13:27.000Z</time>
      </trkpt>
      <trkpt lat="48.48728" lon="-2.56803">
        <ele>48.200000762939</ele>
        <time>2020-02-07T09:13:29.000Z</time>
      </trkpt>
      <trkpt lat="48.48725" lon="-2.56809">
        <ele>47.799999237061</ele>
        <time>2020-02-07T09:13:31.000Z</time>
      </trkpt>
      <trkpt lat="48.48723" lon="-2.56814">
        <ele>47.400001525879</ele>
        <time>2020-02-07T09:13:32.000Z</time>
      </trkpt>
      <trkpt lat="48.48721" lon="-2.56819">
        <ele>47</ele>
        <time>2020-02-07T09:13:33.000Z</time>
      </trkpt>
      <trkpt lat="48.4872" lon="-2.56824">
        <ele>46.200000762939</ele>
        <time>2020-02-07T09:13:34.000Z</time>
      </trkpt>
      <trkpt lat="48.48718" lon="-2.56837">
        <ele>46.200000762939</ele>
        <time>2020-02-07T09:13:38.000Z</time>
      </trkpt>
      <trkpt lat="48.48719" lon="-2.56846">
        <ele>46.599998474121</ele>
        <time>2020-02-07T09:13:43.000Z</time>
      </trkpt>
      <trkpt lat="48.48719" lon="-2.56849">
        <ele>47</ele>
        <time>2020-02-07T09:13:44.000Z</time>
      </trkpt>
      <trkpt lat="48.4872" lon="-2.56851">
        <ele>47.400001525879</ele>
        <time>2020-02-07T09:13:45.000Z</time>
      </trkpt>
      <trkpt lat="48.4872" lon="-2.56854">
        <ele>47.799999237061</ele>
        <time>2020-02-07T09:13:46.000Z</time>
      </trkpt>
      <trkpt lat="48.48721" lon="-2.56856">
        <ele>48.200000762939</ele>
        <time>2020-02-07T09:13:47.000Z</time>
      </trkpt>
      <trkpt lat="48.48723" lon="-2.56857">
        <ele>48.200000762939</ele>
        <time>2020-02-07T09:13:48.000Z</time>
      </trkpt>
      <trkpt lat="48.48731" lon="-2.56857">
        <ele>48.599998474121</ele>
        <time>2020-02-07T09:13:53.000Z</time>
      </trkpt>
      <trkpt lat="48.48733" lon="-2.56858">
        <ele>49</ele>
        <time>2020-02-07T09:13:54.000Z</time>
      </trkpt>
      <trkpt lat="48.48735" lon="-2.56857">
        <ele>49.400001525879</ele>
        <time>2020-02-07T09:13:55.000Z</time>
      </trkpt>
      <trkpt lat="48.48736" lon="-2.56855">
        <ele>49.799999237061</ele>
        <time>2020-02-07T09:13:56.000Z</time>
      </trkpt>
      <trkpt lat="48.48737" lon="-2.56854">
        <ele>50.400001525879</ele>
        <time>2020-02-07T09:13:57.000Z</time>
      </trkpt>
      <trkpt lat="48.48739" lon="-2.56853">
        <ele>50.400001525879</ele>
        <time>2020-02-07T09:13:58.000Z</time>
      </trkpt>
      <trkpt lat="48.48742" lon="-2.56855">
        <ele>50.400001525879</ele>
        <time>2020-02-07T09:14:02.000Z</time>
      </trkpt>
      <trkpt lat="48.48748" lon="-2.56861">
        <ele>50.400001525879</ele>
        <time>2020-02-07T09:14:06.000Z</time>
      </trkpt>
      <trkpt lat="48.48752" lon="-2.56862">
        <ele>50.400001525879</ele>
        <time>2020-02-07T09:14:08.000Z</time>
      </trkpt>
      <trkpt lat="48.48754" lon="-2.56864">
        <ele>50.400001525879</ele>
        <time>2020-02-07T09:14:09.000Z</time>
      </trkpt>
      <trkpt lat="48.48755" lon="-2.56865">
        <ele>50.799999237061</ele>
        <time>2020-02-07T09:14:10.000Z</time>
      </trkpt>
      <trkpt lat="48.48756" lon="-2.56868">
        <ele>51.200000762939</ele>
        <time>2020-02-07T09:14:11.000Z</time>
      </trkpt>
      <trkpt lat="48.48757" lon="-2.56871">
        <ele>51.599998474121</ele>
        <time>2020-02-07T09:14:12.000Z</time>
      </trkpt>
      <trkpt lat="48.48758" lon="-2.56873">
        <ele>52</ele>
        <time>2020-02-07T09:14:13.000Z</time>
      </trkpt>
      <trkpt lat="48.48759" lon="-2.56876">
        <ele>52.400001525879</ele>
        <time>2020-02-07T09:14:14.000Z</time>
      </trkpt>
      <trkpt lat="48.48765" lon="-2.56882">
        <ele>52.400001525879</ele>
        <time>2020-02-07T09:14:18.000Z</time>
      </trkpt>
      <trkpt lat="48.48775" lon="-2.56887">
        <ele>52.799999237061</ele>
        <time>2020-02-07T09:14:24.000Z</time>
      </trkpt>
      <trkpt lat="48.48776" lon="-2.56888">
        <ele>53.200000762939</ele>
        <time>2020-02-07T09:14:25.000Z</time>
      </trkpt>
      <trkpt lat="48.48777" lon="-2.56889">
        <ele>53.599998474121</ele>
        <time>2020-02-07T09:14:26.000Z</time>
      </trkpt>
      <trkpt lat="48.48779" lon="-2.5689">
        <ele>54</ele>
        <time>2020-02-07T09:14:27.000Z</time>
      </trkpt>
      <trkpt lat="48.4878" lon="-2.56891">
        <ele>54.400001525879</ele>
        <time>2020-02-07T09:14:28.000Z</time>
      </trkpt>
      <trkpt lat="48.48784" lon="-2.56894">
        <ele>54.400001525879</ele>
        <time>2020-02-07T09:14:30.000Z</time>
      </trkpt>
      <trkpt lat="48.48792" lon="-2.56902">
        <ele>54.799999237061</ele>
        <time>2020-02-07T09:14:36.000Z</time>
      </trkpt>
      <trkpt lat="48.48794" lon="-2.56904">
        <ele>55.200000762939</ele>
        <time>2020-02-07T09:14:37.000Z</time>
      </trkpt>
      <trkpt lat="48.48795" lon="-2.56905">
        <ele>55.599998474121</ele>
        <time>2020-02-07T09:14:38.000Z</time>
      </trkpt>
      <trkpt lat="48.48797" lon="-2.56906">
        <ele>56</ele>
        <time>2020-02-07T09:14:39.000Z</time>
      </trkpt>
      <trkpt lat="48.48799" lon="-2.56907">
        <ele>56.400001525879</ele>
        <time>2020-02-07T09:14:40.000Z</time>
      </trkpt>
      <trkpt lat="48.48803" lon="-2.56912">
        <ele>56.400001525879</ele>
        <time>2020-02-07T09:14:43.000Z</time>
      </trkpt>
      <trkpt lat="48.4881" lon="-2.56925">
        <ele>56.799999237061</ele>
        <time>2020-02-07T09:14:49.000Z</time>
      </trkpt>
      <trkpt lat="48.48811" lon="-2.56928">
        <ele>57.200000762939</ele>
        <time>2020-02-07T09:14:50.000Z</time>
      </trkpt>
      <trkpt lat="48.48812" lon="-2.5693">
        <ele>57.599998474121</ele>
        <time>2020-02-07T09:14:51.000Z</time>
      </trkpt>
      <trkpt lat="48.48813" lon="-2.56931">
        <ele>58</ele>
        <time>2020-02-07T09:14:52.000Z</time>
      </trkpt>
      <trkpt lat="48.48815" lon="-2.56933">
        <ele>58.400001525879</ele>
        <time>2020-02-07T09:14:53.000Z</time>
      </trkpt>
      <trkpt lat="48.4882" lon="-2.56937">
        <ele>58.400001525879</ele>
        <time>2020-02-07T09:14:56.000Z</time>
      </trkpt>
      <trkpt lat="48.48835" lon="-2.56938">
        <ele>58.400001525879</ele>
        <time>2020-02-07T09:15:04.000Z</time>
      </trkpt>
      <trkpt lat="48.48849" lon="-2.56938">
        <ele>58.400001525879</ele>
        <time>2020-02-07T09:15:12.000Z</time>
      </trkpt>
      <trkpt lat="48.48868" lon="-2.56939">
        <ele>58.400001525879</ele>
        <time>2020-02-07T09:15:21.000Z</time>
      </trkpt>
      <trkpt lat="48.48888" lon="-2.56941">
        <ele>58.400001525879</ele>
        <time>2020-02-07T09:15:30.000Z</time>
      </trkpt>
      <trkpt lat="48.48904" lon="-2.56942">
        <ele>58.400001525879</ele>
        <time>2020-02-07T09:15:38.000Z</time>
      </trkpt>
      <trkpt lat="48.48913" lon="-2.56933">
        <ele>58.400001525879</ele>
        <time>2020-02-07T09:15:44.000Z</time>
      </trkpt>
      <trkpt lat="48.48915" lon="-2.56917">
        <ele>58.400001525879</ele>
        <time>2020-02-07T09:15:50.000Z</time>
      </trkpt>
      <trkpt lat="48.48913" lon="-2.56895">
        <ele>58.799999237061</ele>
        <time>2020-02-07T09:15:58.000Z</time>
      </trkpt>
      <trkpt lat="48.48913" lon="-2.56892">
        <ele>59.200000762939</ele>
        <time>2020-02-07T09:15:59.000Z</time>
      </trkpt>
      <trkpt lat="48.48913" lon="-2.56889">
        <ele>59.599998474121</ele>
        <time>2020-02-07T09:16:00.000Z</time>
      </trkpt>
      <trkpt lat="48.48913" lon="-2.56887">
        <ele>60</ele>
        <time>2020-02-07T09:16:01.000Z</time>
      </trkpt>
      <trkpt lat="48.48913" lon="-2.56884">
        <ele>60.400001525879</ele>
        <time>2020-02-07T09:16:02.000Z</time>
      </trkpt>
      <trkpt lat="48.48916" lon="-2.56875">
        <ele>60.400001525879</ele>
        <time>2020-02-07T09:16:06.000Z</time>
      </trkpt>
      <trkpt lat="48.48921" lon="-2.56877">
        <ele>60.400001525879</ele>
        <time>2020-02-07T09:16:09.000Z</time>
      </trkpt>
      <trkpt lat="48.48926" lon="-2.5689">
        <ele>60.400001525879</ele>
        <time>2020-02-07T09:16:14.000Z</time>
      </trkpt>
      <trkpt lat="48.48931" lon="-2.56906">
        <ele>60.400001525879</ele>
        <time>2020-02-07T09:16:20.000Z</time>
      </trkpt>
      <trkpt lat="48.48942" lon="-2.5691">
        <ele>60.400001525879</ele>
        <time>2020-02-07T09:16:26.000Z</time>
      </trkpt>
      <trkpt lat="48.48956" lon="-2.56907">
        <ele>60.400001525879</ele>
        <time>2020-02-07T09:16:33.000Z</time>
      </trkpt>
      <trkpt lat="48.4897" lon="-2.56906">
        <ele>60.400001525879</ele>
        <time>2020-02-07T09:16:40.000Z</time>
      </trkpt>
      <trkpt lat="48.48979" lon="-2.56895">
        <ele>60.400001525879</ele>
        <time>2020-02-07T09:16:45.000Z</time>
      </trkpt>
      <trkpt lat="48.48984" lon="-2.56876">
        <ele>60.400001525879</ele>
        <time>2020-02-07T09:16:51.000Z</time>
      </trkpt>
      <trkpt lat="48.48993" lon="-2.56847">
        <ele>60.400001525879</ele>
        <time>2020-02-07T09:17:00.000Z</time>
      </trkpt>
      <trkpt lat="48.48995" lon="-2.56845">
        <ele>60.400001525879</ele>
        <time>2020-02-07T09:17:01.000Z</time>
      </trkpt>
      <trkpt lat="48.49" lon="-2.56845">
        <ele>60.400001525879</ele>
        <time>2020-02-07T09:17:03.000Z</time>
      </trkpt>
      <trkpt lat="48.49007" lon="-2.56847">
        <ele>60.400001525879</ele>
        <time>2020-02-07T09:17:05.000Z</time>
      </trkpt>
      <trkpt lat="48.49016" lon="-2.56848">
        <ele>60.400001525879</ele>
        <time>2020-02-07T09:17:08.000Z</time>
      </trkpt>
      <trkpt lat="48.49041" lon="-2.56853">
        <ele>60.400001525879</ele>
        <time>2020-02-07T09:17:15.000Z</time>
      </trkpt>
      <trkpt lat="48.49063" lon="-2.56859">
        <ele>60.400001525879</ele>
        <time>2020-02-07T09:17:22.000Z</time>
      </trkpt>
      <trkpt lat="48.49088" lon="-2.56857">
        <ele>60.400001525879</ele>
        <time>2020-02-07T09:17:30.000Z</time>
      </trkpt>
      <trkpt lat="48.49104" lon="-2.56845">
        <ele>60.400001525879</ele>
        <time>2020-02-07T09:17:36.000Z</time>
      </trkpt>
      <trkpt lat="48.49119" lon="-2.56829">
        <ele>60.400001525879</ele>
        <time>2020-02-07T09:17:43.000Z</time>
      </trkpt>
      <trkpt lat="48.49122" lon="-2.56829">
        <ele>60.400001525879</ele>
        <time>2020-02-07T09:17:44.000Z</time>
      </trkpt>
      <trkpt lat="48.49128" lon="-2.56834">
        <ele>60.400001525879</ele>
        <time>2020-02-07T09:17:46.000Z</time>
      </trkpt>
      <trkpt lat="48.49149" lon="-2.56856">
        <ele>60.400001525879</ele>
        <time>2020-02-07T09:17:53.000Z</time>
      </trkpt>
      <trkpt lat="48.49168" lon="-2.56865">
        <ele>60.400001525879</ele>
        <time>2020-02-07T09:18:00.000Z</time>
      </trkpt>
      <trkpt lat="48.49177" lon="-2.56855">
        <ele>60.400001525879</ele>
        <time>2020-02-07T09:18:04.000Z</time>
      </trkpt>
      <trkpt lat="48.49187" lon="-2.56842">
        <ele>60.400001525879</ele>
        <time>2020-02-07T09:18:10.000Z</time>
      </trkpt>
      <trkpt lat="48.49199" lon="-2.56832">
        <ele>60.400001525879</ele>
        <time>2020-02-07T09:18:16.000Z</time>
      </trkpt>
      <trkpt lat="48.49209" lon="-2.56829">
        <ele>60.400001525879</ele>
        <time>2020-02-07T09:18:22.000Z</time>
      </trkpt>
      <trkpt lat="48.4921" lon="-2.56827">
        <ele>60.400001525879</ele>
        <time>2020-02-07T09:18:23.000Z</time>
      </trkpt>
      <trkpt lat="48.49212" lon="-2.56827">
        <ele>60.400001525879</ele>
        <time>2020-02-07T09:18:24.000Z</time>
      </trkpt>
      <trkpt lat="48.49216" lon="-2.56829">
        <ele>60.400001525879</ele>
        <time>2020-02-07T09:18:27.000Z</time>
      </trkpt>
      <trkpt lat="48.4922" lon="-2.56837">
        <ele>59.599998474121</ele>
        <time>2020-02-07T09:18:31.000Z</time>
      </trkpt>
      <trkpt lat="48.49221" lon="-2.5684">
        <ele>59.200000762939</ele>
        <time>2020-02-07T09:18:32.000Z</time>
      </trkpt>
      <trkpt lat="48.49223" lon="-2.56843">
        <ele>58.799999237061</ele>
        <time>2020-02-07T09:18:33.000Z</time>
      </trkpt>
      <trkpt lat="48.49224" lon="-2.56846">
        <ele>58.400001525879</ele>
        <time>2020-02-07T09:18:34.000Z</time>
      </trkpt>
      <trkpt lat="48.49228" lon="-2.56857">
        <ele>58.400001525879</ele>
        <time>2020-02-07T09:18:37.000Z</time>
      </trkpt>
      <trkpt lat="48.49235" lon="-2.56878">
        <ele>58</ele>
        <time>2020-02-07T09:18:43.000Z</time>
      </trkpt>
      <trkpt lat="48.49236" lon="-2.56884">
        <ele>57.599998474121</ele>
        <time>2020-02-07T09:18:44.000Z</time>
      </trkpt>
      <trkpt lat="48.49237" lon="-2.5689">
        <ele>57.200000762939</ele>
        <time>2020-02-07T09:18:45.000Z</time>
      </trkpt>
      <trkpt lat="48.49238" lon="-2.56897">
        <ele>56.599998474121</ele>
        <time>2020-02-07T09:18:46.000Z</time>
      </trkpt>
      <trkpt lat="48.49238" lon="-2.56902">
        <ele>56.200000762939</ele>
        <time>2020-02-07T09:18:47.000Z</time>
      </trkpt>
      <trkpt lat="48.49237" lon="-2.56908">
        <ele>55.599998474121</ele>
        <time>2020-02-07T09:18:48.000Z</time>
      </trkpt>
      <trkpt lat="48.49236" lon="-2.56912">
        <ele>55</ele>
        <time>2020-02-07T09:18:49.000Z</time>
      </trkpt>
      <trkpt lat="48.49235" lon="-2.56914">
        <ele>54.400001525879</ele>
        <time>2020-02-07T09:18:50.000Z</time>
      </trkpt>
      <trkpt lat="48.49235" lon="-2.56918">
        <ele>54</ele>
        <time>2020-02-07T09:18:51.000Z</time>
      </trkpt>
      <trkpt lat="48.49235" lon="-2.56921">
        <ele>53.400001525879</ele>
        <time>2020-02-07T09:18:52.000Z</time>
      </trkpt>
      <trkpt lat="48.49236" lon="-2.56924">
        <ele>52.799999237061</ele>
        <time>2020-02-07T09:18:53.000Z</time>
      </trkpt>
      <trkpt lat="48.49236" lon="-2.56928">
        <ele>52.400001525879</ele>
        <time>2020-02-07T09:18:54.000Z</time>
      </trkpt>
      <trkpt lat="48.49237" lon="-2.56946">
        <ele>52.400001525879</ele>
        <time>2020-02-07T09:18:57.000Z</time>
      </trkpt>
      <trkpt lat="48.49239" lon="-2.56969">
        <ele>52</ele>
        <time>2020-02-07T09:19:02.000Z</time>
      </trkpt>
      <trkpt lat="48.49239" lon="-2.56972">
        <ele>51.599998474121</ele>
        <time>2020-02-07T09:19:03.000Z</time>
      </trkpt>
      <trkpt lat="48.4924" lon="-2.56977">
        <ele>51.200000762939</ele>
        <time>2020-02-07T09:19:04.000Z</time>
      </trkpt>
      <trkpt lat="48.4924" lon="-2.56981">
        <ele>50.599998474121</ele>
        <time>2020-02-07T09:19:05.000Z</time>
      </trkpt>
      <trkpt lat="48.49241" lon="-2.56985">
        <ele>50.200000762939</ele>
        <time>2020-02-07T09:19:06.000Z</time>
      </trkpt>
      <trkpt lat="48.49241" lon="-2.56988">
        <ele>50.200000762939</ele>
        <time>2020-02-07T09:19:07.000Z</time>
      </trkpt>
      <trkpt lat="48.49242" lon="-2.5699">
        <ele>50.200000762939</ele>
        <time>2020-02-07T09:19:08.000Z</time>
      </trkpt>
      <trkpt lat="48.49243" lon="-2.56994">
        <ele>49.799999237061</ele>
        <time>2020-02-07T09:19:10.000Z</time>
      </trkpt>
      <trkpt lat="48.49244" lon="-2.56995">
        <ele>49.400001525879</ele>
        <time>2020-02-07T09:19:11.000Z</time>
      </trkpt>
      <trkpt lat="48.49245" lon="-2.56995">
        <ele>49</ele>
        <time>2020-02-07T09:19:12.000Z</time>
      </trkpt>
      <trkpt lat="48.49247" lon="-2.56995">
        <ele>48.400001525879</ele>
        <time>2020-02-07T09:19:13.000Z</time>
      </trkpt>
      <trkpt lat="48.49248" lon="-2.56995">
        <ele>47.799999237061</ele>
        <time>2020-02-07T09:19:14.000Z</time>
      </trkpt>
      <trkpt lat="48.49249" lon="-2.56996">
        <ele>47.200000762939</ele>
        <time>2020-02-07T09:19:15.000Z</time>
      </trkpt>
      <trkpt lat="48.49251" lon="-2.56996">
        <ele>46.400001525879</ele>
        <time>2020-02-07T09:19:16.000Z</time>
      </trkpt>
      <trkpt lat="48.49252" lon="-2.56997">
        <ele>45.799999237061</ele>
        <time>2020-02-07T09:19:17.000Z</time>
      </trkpt>
      <trkpt lat="48.49253" lon="-2.56996">
        <ele>45.200000762939</ele>
        <time>2020-02-07T09:19:18.000Z</time>
      </trkpt>
      <trkpt lat="48.49254" lon="-2.56994">
        <ele>44.599998474121</ele>
        <time>2020-02-07T09:19:19.000Z</time>
      </trkpt>
      <trkpt lat="48.49254" lon="-2.56992">
        <ele>43.799999237061</ele>
        <time>2020-02-07T09:19:20.000Z</time>
      </trkpt>
      <trkpt lat="48.49255" lon="-2.56991">
        <ele>42.599998474121</ele>
        <time>2020-02-07T09:19:21.000Z</time>
      </trkpt>
      <trkpt lat="48.49255" lon="-2.56989">
        <ele>41.799999237061</ele>
        <time>2020-02-07T09:19:22.000Z</time>
      </trkpt>
      <trkpt lat="48.49256" lon="-2.56987">
        <ele>41.799999237061</ele>
        <time>2020-02-07T09:19:23.000Z</time>
      </trkpt>
      <trkpt lat="48.49258" lon="-2.56987">
        <ele>41.799999237061</ele>
        <time>2020-02-07T09:19:24.000Z</time>
      </trkpt>
      <trkpt lat="48.49265" lon="-2.56983">
        <ele>41.400001525879</ele>
        <time>2020-02-07T09:19:27.000Z</time>
      </trkpt>
      <trkpt lat="48.49267" lon="-2.56982">
        <ele>41</ele>
        <time>2020-02-07T09:19:28.000Z</time>
      </trkpt>
      <trkpt lat="48.49269" lon="-2.56983">
        <ele>40.400001525879</ele>
        <time>2020-02-07T09:19:29.000Z</time>
      </trkpt>
      <trkpt lat="48.4927" lon="-2.56983">
        <ele>40</ele>
        <time>2020-02-07T09:19:30.000Z</time>
      </trkpt>
      <trkpt lat="48.49271" lon="-2.56983">
        <ele>39.599998474121</ele>
        <time>2020-02-07T09:19:31.000Z</time>
      </trkpt>
      <trkpt lat="48.49277" lon="-2.56984">
        <ele>39.599998474121</ele>
        <time>2020-02-07T09:19:33.000Z</time>
      </trkpt>
      <trkpt lat="48.49287" lon="-2.56995">
        <ele>39.599998474121</ele>
        <time>2020-02-07T09:19:37.000Z</time>
      </trkpt>
      <trkpt lat="48.49288" lon="-2.56998">
        <ele>39.599998474121</ele>
        <time>2020-02-07T09:19:38.000Z</time>
      </trkpt>
      <trkpt lat="48.49292" lon="-2.57009">
        <ele>39.200000762939</ele>
        <time>2020-02-07T09:19:41.000Z</time>
      </trkpt>
      <trkpt lat="48.49293" lon="-2.57011">
        <ele>38.799999237061</ele>
        <time>2020-02-07T09:19:42.000Z</time>
      </trkpt>
      <trkpt lat="48.49293" lon="-2.57014">
        <ele>38.400001525879</ele>
        <time>2020-02-07T09:19:43.000Z</time>
      </trkpt>
      <trkpt lat="48.49293" lon="-2.57017">
        <ele>38</ele>
        <time>2020-02-07T09:19:44.000Z</time>
      </trkpt>
      <trkpt lat="48.49295" lon="-2.57019">
        <ele>37.599998474121</ele>
        <time>2020-02-07T09:19:45.000Z</time>
      </trkpt>
      <trkpt lat="48.49298" lon="-2.57021">
        <ele>37.599998474121</ele>
        <time>2020-02-07T09:19:49.000Z</time>
      </trkpt>
      <trkpt lat="48.49298" lon="-2.57024">
        <ele>37.599998474121</ele>
        <time>2020-02-07T09:19:54.000Z</time>
      </trkpt>
      <trkpt lat="48.49301" lon="-2.57025">
        <ele>37.599998474121</ele>
        <time>2020-02-07T09:19:59.000Z</time>
      </trkpt>
      <trkpt lat="48.49302" lon="-2.57026">
        <ele>37.599998474121</ele>
        <time>2020-02-07T09:20:00.000Z</time>
      </trkpt>
      <trkpt lat="48.49302" lon="-2.57026">
        <ele>38</ele>
        <time>2020-02-07T09:20:01.000Z</time>
      </trkpt>
      <trkpt lat="48.49302" lon="-2.57026">
        <ele>38.400001525879</ele>
        <time>2020-02-07T09:20:02.000Z</time>
      </trkpt>
      <trkpt lat="48.49302" lon="-2.57026">
        <ele>38.799999237061</ele>
        <time>2020-02-07T09:20:03.000Z</time>
      </trkpt>
      <trkpt lat="48.49303" lon="-2.57027">
        <ele>39.200000762939</ele>
        <time>2020-02-07T09:20:04.000Z</time>
      </trkpt>
      <trkpt lat="48.49303" lon="-2.57027">
        <ele>39.599998474121</ele>
        <time>2020-02-07T09:20:05.000Z</time>
      </trkpt>
      <trkpt lat="48.49303" lon="-2.57027">
        <ele>39.599998474121</ele>
        <time>2020-02-07T09:20:06.000Z</time>
      </trkpt>
      <trkpt lat="48.49304" lon="-2.57029">
        <ele>40.200000762939</ele>
        <time>2020-02-07T09:20:10.000Z</time>
      </trkpt>
      <trkpt lat="48.49304" lon="-2.57029">
        <ele>40.599998474121</ele>
        <time>2020-02-07T09:20:11.000Z</time>
      </trkpt>
      <trkpt lat="48.49304" lon="-2.57029">
        <ele>41</ele>
        <time>2020-02-07T09:20:12.000Z</time>
      </trkpt>
      <trkpt lat="48.49304" lon="-2.57029">
        <ele>41.400001525879</ele>
        <time>2020-02-07T09:20:13.000Z</time>
      </trkpt>
      <trkpt lat="48.49305" lon="-2.5703">
        <ele>41.799999237061</ele>
        <time>2020-02-07T09:20:14.000Z</time>
      </trkpt>
      <trkpt lat="48.49306" lon="-2.57031">
        <ele>41.799999237061</ele>
        <time>2020-02-07T09:20:21.000Z</time>
      </trkpt>
      <trkpt lat="48.49306" lon="-2.57035">
        <ele>41.799999237061</ele>
        <time>2020-02-07T09:20:22.000Z</time>
      </trkpt>
      <trkpt lat="48.49305" lon="-2.57044">
        <ele>41.799999237061</ele>
        <time>2020-02-07T09:20:25.000Z</time>
      </trkpt>
      <trkpt lat="48.49305" lon="-2.57047">
        <ele>41.799999237061</ele>
        <time>2020-02-07T09:20:26.000Z</time>
      </trkpt>
      <trkpt lat="48.49298" lon="-2.57065">
        <ele>41.799999237061</ele>
        <time>2020-02-07T09:20:31.000Z</time>
      </trkpt>
      <trkpt lat="48.49287" lon="-2.57088">
        <ele>41.799999237061</ele>
        <time>2020-02-07T09:20:36.000Z</time>
      </trkpt>
      <trkpt lat="48.49281" lon="-2.571">
        <ele>41.400001525879</ele>
        <time>2020-02-07T09:20:39.000Z</time>
      </trkpt>
      <trkpt lat="48.4928" lon="-2.57104">
        <ele>41</ele>
        <time>2020-02-07T09:20:40.000Z</time>
      </trkpt>
      <trkpt lat="48.49278" lon="-2.57109">
        <ele>40.599998474121</ele>
        <time>2020-02-07T09:20:41.000Z</time>
      </trkpt>
      <trkpt lat="48.49276" lon="-2.57114">
        <ele>40</ele>
        <time>2020-02-07T09:20:42.000Z</time>
      </trkpt>
      <trkpt lat="48.49275" lon="-2.57119">
        <ele>39.599998474121</ele>
        <time>2020-02-07T09:20:43.000Z</time>
      </trkpt>
      <trkpt lat="48.49269" lon="-2.57133">
        <ele>39.200000762939</ele>
        <time>2020-02-07T09:20:46.000Z</time>
      </trkpt>
      <trkpt lat="48.49267" lon="-2.57137">
        <ele>38.799999237061</ele>
        <time>2020-02-07T09:20:47.000Z</time>
      </trkpt>
      <trkpt lat="48.49266" lon="-2.57143">
        <ele>38.200000762939</ele>
        <time>2020-02-07T09:20:48.000Z</time>
      </trkpt>
      <trkpt lat="48.49265" lon="-2.57146">
        <ele>37.799999237061</ele>
        <time>2020-02-07T09:20:49.000Z</time>
      </trkpt>
      <trkpt lat="48.49263" lon="-2.5715">
        <ele>37.400001525879</ele>
        <time>2020-02-07T09:20:50.000Z</time>
      </trkpt>
      <trkpt lat="48.49262" lon="-2.57152">
        <ele>37.400001525879</ele>
        <time>2020-02-07T09:20:51.000Z</time>
      </trkpt>
      <trkpt lat="48.49261" lon="-2.57154">
        <ele>37</ele>
        <time>2020-02-07T09:20:53.000Z</time>
      </trkpt>
      <trkpt lat="48.4926" lon="-2.57154">
        <ele>36.599998474121</ele>
        <time>2020-02-07T09:20:54.000Z</time>
      </trkpt>
      <trkpt lat="48.49259" lon="-2.57155">
        <ele>36.200000762939</ele>
        <time>2020-02-07T09:20:55.000Z</time>
      </trkpt>
      <trkpt lat="48.49258" lon="-2.57157">
        <ele>35.599998474121</ele>
        <time>2020-02-07T09:20:56.000Z</time>
      </trkpt>
      <trkpt lat="48.49257" lon="-2.57159">
        <ele>35.200000762939</ele>
        <time>2020-02-07T09:20:57.000Z</time>
      </trkpt>
      <trkpt lat="48.49255" lon="-2.57163">
        <ele>34.799999237061</ele>
        <time>2020-02-07T09:20:59.000Z</time>
      </trkpt>
      <trkpt lat="48.49254" lon="-2.57165">
        <ele>33.799999237061</ele>
        <time>2020-02-07T09:21:00.000Z</time>
      </trkpt>
      <trkpt lat="48.49254" lon="-2.57167">
        <ele>33.200000762939</ele>
        <time>2020-02-07T09:21:01.000Z</time>
      </trkpt>
      <trkpt lat="48.49254" lon="-2.57169">
        <ele>32.599998474121</ele>
        <time>2020-02-07T09:21:02.000Z</time>
      </trkpt>
      <trkpt lat="48.49254" lon="-2.57171">
        <ele>32</ele>
        <time>2020-02-07T09:21:03.000Z</time>
      </trkpt>
      <trkpt lat="48.49254" lon="-2.57173">
        <ele>31.39999961853</ele>
        <time>2020-02-07T09:21:04.000Z</time>
      </trkpt>
      <trkpt lat="48.49253" lon="-2.57175">
        <ele>30.799999237061</ele>
        <time>2020-02-07T09:21:05.000Z</time>
      </trkpt>
      <trkpt lat="48.49253" lon="-2.57176">
        <ele>30.200000762939</ele>
        <time>2020-02-07T09:21:06.000Z</time>
      </trkpt>
      <trkpt lat="48.49253" lon="-2.57176">
        <ele>29.60000038147</ele>
        <time>2020-02-07T09:21:07.000Z</time>
      </trkpt>
      <trkpt lat="48.49253" lon="-2.57176">
        <ele>29.200000762939</ele>
        <time>2020-02-07T09:21:08.000Z</time>
      </trkpt>
      <trkpt lat="48.49252" lon="-2.57176">
        <ele>28.60000038147</ele>
        <time>2020-02-07T09:21:09.000Z</time>
      </trkpt>
      <trkpt lat="48.4925" lon="-2.57176">
        <ele>28</ele>
        <time>2020-02-07T09:21:10.000Z</time>
      </trkpt>
      <trkpt lat="48.49248" lon="-2.57174">
        <ele>28</ele>
        <time>2020-02-07T09:21:12.000Z</time>
      </trkpt>
      <trkpt lat="48.49247" lon="-2.5717">
        <ele>28</ele>
        <time>2020-02-07T09:21:13.000Z</time>
      </trkpt>
      <trkpt lat="48.49245" lon="-2.57168">
        <ele>27.39999961853</ele>
        <time>2020-02-07T09:21:14.000Z</time>
      </trkpt>
      <trkpt lat="48.49244" lon="-2.57167">
        <ele>27</ele>
        <time>2020-02-07T09:21:15.000Z</time>
      </trkpt>
      <trkpt lat="48.49242" lon="-2.57166">
        <ele>26.60000038147</ele>
        <time>2020-02-07T09:21:16.000Z</time>
      </trkpt>
      <trkpt lat="48.49241" lon="-2.57166">
        <ele>26</ele>
        <time>2020-02-07T09:21:17.000Z</time>
      </trkpt>
      <trkpt lat="48.49238" lon="-2.57167">
        <ele>25.60000038147</ele>
        <time>2020-02-07T09:21:18.000Z</time>
      </trkpt>
      <trkpt lat="48.49233" lon="-2.57171">
        <ele>25.60000038147</ele>
        <time>2020-02-07T09:21:21.000Z</time>
      </trkpt>
      <trkpt lat="48.49228" lon="-2.57174">
        <ele>25.60000038147</ele>
        <time>2020-02-07T09:21:24.000Z</time>
      </trkpt>
      <trkpt lat="48.49228" lon="-2.57177">
        <ele>25.60000038147</ele>
        <time>2020-02-07T09:21:26.000Z</time>
      </trkpt>
      <trkpt lat="48.49222" lon="-2.57189">
        <ele>25.60000038147</ele>
        <time>2020-02-07T09:21:31.000Z</time>
      </trkpt>
      <trkpt lat="48.49222" lon="-2.57192">
        <ele>25.60000038147</ele>
        <time>2020-02-07T09:21:32.000Z</time>
      </trkpt>
      <trkpt lat="48.49215" lon="-2.57202">
        <ele>25.60000038147</ele>
        <time>2020-02-07T09:21:37.000Z</time>
      </trkpt>
      <trkpt lat="48.49211" lon="-2.57205">
        <ele>25.60000038147</ele>
        <time>2020-02-07T09:21:39.000Z</time>
      </trkpt>
      <trkpt lat="48.49208" lon="-2.57209">
        <ele>25.60000038147</ele>
        <time>2020-02-07T09:21:41.000Z</time>
      </trkpt>
      <trkpt lat="48.49206" lon="-2.5721">
        <ele>25.60000038147</ele>
        <time>2020-02-07T09:21:42.000Z</time>
      </trkpt>
      <trkpt lat="48.49201" lon="-2.57214">
        <ele>25.60000038147</ele>
        <time>2020-02-07T09:21:46.000Z</time>
      </trkpt>
      <trkpt lat="48.49197" lon="-2.57218">
        <ele>24.799999237061</ele>
        <time>2020-02-07T09:21:48.000Z</time>
      </trkpt>
      <trkpt lat="48.49194" lon="-2.57218">
        <ele>24.39999961853</ele>
        <time>2020-02-07T09:21:49.000Z</time>
      </trkpt>
      <trkpt lat="48.49192" lon="-2.57219">
        <ele>24</ele>
        <time>2020-02-07T09:21:50.000Z</time>
      </trkpt>
      <trkpt lat="48.49191" lon="-2.57219">
        <ele>23.60000038147</ele>
        <time>2020-02-07T09:21:51.000Z</time>
      </trkpt>
      <trkpt lat="48.49184" lon="-2.57224">
        <ele>23.60000038147</ele>
        <time>2020-02-07T09:21:58.000Z</time>
      </trkpt>
      <trkpt lat="48.49177" lon="-2.57231">
        <ele>23.60000038147</ele>
        <time>2020-02-07T09:22:03.000Z</time>
      </trkpt>
      <trkpt lat="48.49163" lon="-2.5724">
        <ele>23.60000038147</ele>
        <time>2020-02-07T09:22:09.000Z</time>
      </trkpt>
      <trkpt lat="48.49151" lon="-2.57244">
        <ele>23.60000038147</ele>
        <time>2020-02-07T09:22:14.000Z</time>
      </trkpt>
      <trkpt lat="48.49144" lon="-2.5725">
        <ele>23.200000762939</ele>
        <time>2020-02-07T09:22:18.000Z</time>
      </trkpt>
      <trkpt lat="48.49141" lon="-2.5725">
        <ele>22.799999237061</ele>
        <time>2020-02-07T09:22:19.000Z</time>
      </trkpt>
      <trkpt lat="48.49138" lon="-2.57251">
        <ele>22.39999961853</ele>
        <time>2020-02-07T09:22:20.000Z</time>
      </trkpt>
      <trkpt lat="48.49137" lon="-2.57251">
        <ele>22</ele>
        <time>2020-02-07T09:22:21.000Z</time>
      </trkpt>
      <trkpt lat="48.49134" lon="-2.57252">
        <ele>21.60000038147</ele>
        <time>2020-02-07T09:22:22.000Z</time>
      </trkpt>
      <trkpt lat="48.49132" lon="-2.57252">
        <ele>21.60000038147</ele>
        <time>2020-02-07T09:22:23.000Z</time>
      </trkpt>
      <trkpt lat="48.49131" lon="-2.57253">
        <ele>21.60000038147</ele>
        <time>2020-02-07T09:22:24.000Z</time>
      </trkpt>
      <trkpt lat="48.49128" lon="-2.57252">
        <ele>21.60000038147</ele>
        <time>2020-02-07T09:22:26.000Z</time>
      </trkpt>
      <trkpt lat="48.49124" lon="-2.57252">
        <ele>21.60000038147</ele>
        <time>2020-02-07T09:22:29.000Z</time>
      </trkpt>
      <trkpt lat="48.4912" lon="-2.57254">
        <ele>21.60000038147</ele>
        <time>2020-02-07T09:22:35.000Z</time>
      </trkpt>
      <trkpt lat="48.4912" lon="-2.57254">
        <ele>21.60000038147</ele>
        <time>2020-02-07T09:22:44.000Z</time>
      </trkpt>
      <trkpt lat="48.49117" lon="-2.57254">
        <ele>21.60000038147</ele>
        <time>2020-02-07T09:22:52.000Z</time>
      </trkpt>
      <trkpt lat="48.49115" lon="-2.57249">
        <ele>21.60000038147</ele>
        <time>2020-02-07T09:22:58.000Z</time>
      </trkpt>
      <trkpt lat="48.49116" lon="-2.57246">
        <ele>21.60000038147</ele>
        <time>2020-02-07T09:23:00.000Z</time>
      </trkpt>
      <trkpt lat="48.49115" lon="-2.57245">
        <ele>21.60000038147</ele>
        <time>2020-02-07T09:23:03.000Z</time>
      </trkpt>
      <trkpt lat="48.49108" lon="-2.57241">
        <ele>21.60000038147</ele>
        <time>2020-02-07T09:23:09.000Z</time>
      </trkpt>
      <trkpt lat="48.49097" lon="-2.57232">
        <ele>21.60000038147</ele>
        <time>2020-02-07T09:23:16.000Z</time>
      </trkpt>
      <trkpt lat="48.49095" lon="-2.5723">
        <ele>22</ele>
        <time>2020-02-07T09:23:18.000Z</time>
      </trkpt>
      <trkpt lat="48.49094" lon="-2.57229">
        <ele>22.39999961853</ele>
        <time>2020-02-07T09:23:19.000Z</time>
      </trkpt>
      <trkpt lat="48.49094" lon="-2.57228">
        <ele>22.799999237061</ele>
        <time>2020-02-07T09:23:20.000Z</time>
      </trkpt>
      <trkpt lat="48.49093" lon="-2.57228">
        <ele>23.200000762939</ele>
        <time>2020-02-07T09:23:21.000Z</time>
      </trkpt>
      <trkpt lat="48.49093" lon="-2.57225">
        <ele>23.60000038147</ele>
        <time>2020-02-07T09:23:22.000Z</time>
      </trkpt>
      <trkpt lat="48.49087" lon="-2.57218">
        <ele>24</ele>
        <time>2020-02-07T09:23:29.000Z</time>
      </trkpt>
      <trkpt lat="48.49086" lon="-2.57217">
        <ele>24.39999961853</ele>
        <time>2020-02-07T09:23:30.000Z</time>
      </trkpt>
      <trkpt lat="48.49084" lon="-2.57217">
        <ele>24.799999237061</ele>
        <time>2020-02-07T09:23:31.000Z</time>
      </trkpt>
      <trkpt lat="48.49083" lon="-2.57216">
        <ele>25.200000762939</ele>
        <time>2020-02-07T09:23:32.000Z</time>
      </trkpt>
      <trkpt lat="48.49083" lon="-2.57216">
        <ele>25.60000038147</ele>
        <time>2020-02-07T09:23:33.000Z</time>
      </trkpt>
      <trkpt lat="48.49082" lon="-2.57215">
        <ele>25.60000038147</ele>
        <time>2020-02-07T09:23:34.000Z</time>
      </trkpt>
      <trkpt lat="48.49079" lon="-2.57212">
        <ele>26</ele>
        <time>2020-02-07T09:23:38.000Z</time>
      </trkpt>
      <trkpt lat="48.49078" lon="-2.57211">
        <ele>26.39999961853</ele>
        <time>2020-02-07T09:23:39.000Z</time>
      </trkpt>
      <trkpt lat="48.49077" lon="-2.57209">
        <ele>26.799999237061</ele>
        <time>2020-02-07T09:23:40.000Z</time>
      </trkpt>
      <trkpt lat="48.49076" lon="-2.57208">
        <ele>27.200000762939</ele>
        <time>2020-02-07T09:23:41.000Z</time>
      </trkpt>
      <trkpt lat="48.49074" lon="-2.57207">
        <ele>27.60000038147</ele>
        <time>2020-02-07T09:23:42.000Z</time>
      </trkpt>
      <trkpt lat="48.49074" lon="-2.57207">
        <ele>27.60000038147</ele>
        <time>2020-02-07T09:23:43.000Z</time>
      </trkpt>
      <trkpt lat="48.49073" lon="-2.57205">
        <ele>28.200000762939</ele>
        <time>2020-02-07T09:23:46.000Z</time>
      </trkpt>
      <trkpt lat="48.49072" lon="-2.57205">
        <ele>28.60000038147</ele>
        <time>2020-02-07T09:23:47.000Z</time>
      </trkpt>
      <trkpt lat="48.49072" lon="-2.57205">
        <ele>29</ele>
        <time>2020-02-07T09:23:48.000Z</time>
      </trkpt>
      <trkpt lat="48.49071" lon="-2.57204">
        <ele>29.39999961853</ele>
        <time>2020-02-07T09:23:49.000Z</time>
      </trkpt>
      <trkpt lat="48.4907" lon="-2.57203">
        <ele>29.799999237061</ele>
        <time>2020-02-07T09:23:50.000Z</time>
      </trkpt>
      <trkpt lat="48.49068" lon="-2.57197">
        <ele>29.799999237061</ele>
        <time>2020-02-07T09:23:56.000Z</time>
      </trkpt>
      <trkpt lat="48.49068" lon="-2.57196">
        <ele>30.200000762939</ele>
        <time>2020-02-07T09:23:57.000Z</time>
      </trkpt>
      <trkpt lat="48.49069" lon="-2.57195">
        <ele>30.60000038147</ele>
        <time>2020-02-07T09:23:58.000Z</time>
      </trkpt>
      <trkpt lat="48.49069" lon="-2.57194">
        <ele>31</ele>
        <time>2020-02-07T09:23:59.000Z</time>
      </trkpt>
      <trkpt lat="48.4907" lon="-2.57193">
        <ele>31.39999961853</ele>
        <time>2020-02-07T09:24:00.000Z</time>
      </trkpt>
      <trkpt lat="48.4907" lon="-2.57192">
        <ele>31.799999237061</ele>
        <time>2020-02-07T09:24:01.000Z</time>
      </trkpt>
      <trkpt lat="48.49069" lon="-2.57191">
        <ele>31.799999237061</ele>
        <time>2020-02-07T09:24:03.000Z</time>
      </trkpt>
      <trkpt lat="48.49069" lon="-2.57189">
        <ele>31.799999237061</ele>
        <time>2020-02-07T09:24:08.000Z</time>
      </trkpt>
      <trkpt lat="48.49069" lon="-2.57189">
        <ele>31.799999237061</ele>
        <time>2020-02-07T09:24:13.000Z</time>
      </trkpt>
      <trkpt lat="48.49074" lon="-2.57184">
        <ele>32.200000762939</ele>
        <time>2020-02-07T09:24:19.000Z</time>
      </trkpt>
      <trkpt lat="48.49075" lon="-2.57183">
        <ele>32.599998474121</ele>
        <time>2020-02-07T09:24:20.000Z</time>
      </trkpt>
      <trkpt lat="48.49076" lon="-2.57181">
        <ele>33</ele>
        <time>2020-02-07T09:24:21.000Z</time>
      </trkpt>
      <trkpt lat="48.49077" lon="-2.57181">
        <ele>33.400001525879</ele>
        <time>2020-02-07T09:24:22.000Z</time>
      </trkpt>
      <trkpt lat="48.49077" lon="-2.57178">
        <ele>33.799999237061</ele>
        <time>2020-02-07T09:24:23.000Z</time>
      </trkpt>
      <trkpt lat="48.49077" lon="-2.57175">
        <ele>33.799999237061</ele>
        <time>2020-02-07T09:24:25.000Z</time>
      </trkpt>
      <trkpt lat="48.49079" lon="-2.57167">
        <ele>33.799999237061</ele>
        <time>2020-02-07T09:24:31.000Z</time>
      </trkpt>
      <trkpt lat="48.49082" lon="-2.57156">
        <ele>34.200000762939</ele>
        <time>2020-02-07T09:24:36.000Z</time>
      </trkpt>
      <trkpt lat="48.49083" lon="-2.57153">
        <ele>34.599998474121</ele>
        <time>2020-02-07T09:24:37.000Z</time>
      </trkpt>
      <trkpt lat="48.49084" lon="-2.57152">
        <ele>35</ele>
        <time>2020-02-07T09:24:38.000Z</time>
      </trkpt>
      <trkpt lat="48.49084" lon="-2.57149">
        <ele>35.400001525879</ele>
        <time>2020-02-07T09:24:39.000Z</time>
      </trkpt>
      <trkpt lat="48.49085" lon="-2.57146">
        <ele>35.799999237061</ele>
        <time>2020-02-07T09:24:40.000Z</time>
      </trkpt>
      <trkpt lat="48.49086" lon="-2.57141">
        <ele>35.799999237061</ele>
        <time>2020-02-07T09:24:42.000Z</time>
      </trkpt>
      <trkpt lat="48.49087" lon="-2.57139">
        <ele>35.799999237061</ele>
        <time>2020-02-07T09:24:43.000Z</time>
      </trkpt>
      <trkpt lat="48.49087" lon="-2.57137">
        <ele>36.200000762939</ele>
        <time>2020-02-07T09:24:44.000Z</time>
      </trkpt>
      <trkpt lat="48.49088" lon="-2.57135">
        <ele>36.599998474121</ele>
        <time>2020-02-07T09:24:45.000Z</time>
      </trkpt>
      <trkpt lat="48.49088" lon="-2.57133">
        <ele>37.200000762939</ele>
        <time>2020-02-07T09:24:46.000Z</time>
      </trkpt>
      <trkpt lat="48.49087" lon="-2.57131">
        <ele>37.599998474121</ele>
        <time>2020-02-07T09:24:47.000Z</time>
      </trkpt>
      <trkpt lat="48.49087" lon="-2.57129">
        <ele>38</ele>
        <time>2020-02-07T09:24:48.000Z</time>
      </trkpt>
      <trkpt lat="48.49088" lon="-2.57123">
        <ele>38</ele>
        <time>2020-02-07T09:24:51.000Z</time>
      </trkpt>
      <trkpt lat="48.49089" lon="-2.57121">
        <ele>38.400001525879</ele>
        <time>2020-02-07T09:24:52.000Z</time>
      </trkpt>
      <trkpt lat="48.49089" lon="-2.5712">
        <ele>38.799999237061</ele>
        <time>2020-02-07T09:24:53.000Z</time>
      </trkpt>
      <trkpt lat="48.49088" lon="-2.57117">
        <ele>39.200000762939</ele>
        <time>2020-02-07T09:24:54.000Z</time>
      </trkpt>
      <trkpt lat="48.49088" lon="-2.57116">
        <ele>39.599998474121</ele>
        <time>2020-02-07T09:24:55.000Z</time>
      </trkpt>
      <trkpt lat="48.49088" lon="-2.57114">
        <ele>40</ele>
        <time>2020-02-07T09:24:56.000Z</time>
      </trkpt>
      <trkpt lat="48.49091" lon="-2.57109">
        <ele>40</ele>
        <time>2020-02-07T09:25:00.000Z</time>
      </trkpt>
      <trkpt lat="48.49091" lon="-2.57108">
        <ele>40.599998474121</ele>
        <time>2020-02-07T09:25:01.000Z</time>
      </trkpt>
      <trkpt lat="48.49091" lon="-2.57108">
        <ele>41</ele>
        <time>2020-02-07T09:25:02.000Z</time>
      </trkpt>
      <trkpt lat="48.49091" lon="-2.57108">
        <ele>41.400001525879</ele>
        <time>2020-02-07T09:25:03.000Z</time>
      </trkpt>
      <trkpt lat="48.49091" lon="-2.57108">
        <ele>41.799999237061</ele>
        <time>2020-02-07T09:25:04.000Z</time>
      </trkpt>
      <trkpt lat="48.4909" lon="-2.57108">
        <ele>42.200000762939</ele>
        <time>2020-02-07T09:25:05.000Z</time>
      </trkpt>
      <trkpt lat="48.4909" lon="-2.57107">
        <ele>42.200000762939</ele>
        <time>2020-02-07T09:25:06.000Z</time>
      </trkpt>
      <trkpt lat="48.49088" lon="-2.57103">
        <ele>42.200000762939</ele>
        <time>2020-02-07T09:25:11.000Z</time>
      </trkpt>
      <trkpt lat="48.49089" lon="-2.57101">
        <ele>42.200000762939</ele>
        <time>2020-02-07T09:25:19.000Z</time>
      </trkpt>
      <trkpt lat="48.49089" lon="-2.57101">
        <ele>43</ele>
        <time>2020-02-07T09:25:22.000Z</time>
      </trkpt>
      <trkpt lat="48.49089" lon="-2.571">
        <ele>43.599998474121</ele>
        <time>2020-02-07T09:25:23.000Z</time>
      </trkpt>
      <trkpt lat="48.49089" lon="-2.57101">
        <ele>44.200000762939</ele>
        <time>2020-02-07T09:25:24.000Z</time>
      </trkpt>
      <trkpt lat="48.49089" lon="-2.57101">
        <ele>44.799999237061</ele>
        <time>2020-02-07T09:25:25.000Z</time>
      </trkpt>
      <trkpt lat="48.4909" lon="-2.57103">
        <ele>45.400001525879</ele>
        <time>2020-02-07T09:25:26.000Z</time>
      </trkpt>
      <trkpt lat="48.4909" lon="-2.57107">
        <ele>45.400001525879</ele>
        <time>2020-02-07T09:25:30.000Z</time>
      </trkpt>
      <trkpt lat="48.49091" lon="-2.57106">
        <ele>45.400001525879</ele>
        <time>2020-02-07T09:25:37.000Z</time>
      </trkpt>
      <trkpt lat="48.49093" lon="-2.571">
        <ele>45.400001525879</ele>
        <time>2020-02-07T09:25:42.000Z</time>
      </trkpt>
      <trkpt lat="48.49093" lon="-2.57094">
        <ele>45.400001525879</ele>
        <time>2020-02-07T09:25:46.000Z</time>
      </trkpt>
      <trkpt lat="48.49094" lon="-2.5709">
        <ele>45.400001525879</ele>
        <time>2020-02-07T09:25:48.000Z</time>
      </trkpt>
      <trkpt lat="48.49094" lon="-2.57085">
        <ele>45.400001525879</ele>
        <time>2020-02-07T09:25:53.000Z</time>
      </trkpt>
      <trkpt lat="48.49093" lon="-2.57079">
        <ele>45.400001525879</ele>
        <time>2020-02-07T09:25:57.000Z</time>
      </trkpt>
      <trkpt lat="48.49093" lon="-2.57073">
        <ele>45.799999237061</ele>
        <time>2020-02-07T09:26:00.000Z</time>
      </trkpt>
      <trkpt lat="48.49092" lon="-2.57072">
        <ele>46.200000762939</ele>
        <time>2020-02-07T09:26:01.000Z</time>
      </trkpt>
      <trkpt lat="48.49092" lon="-2.5707">
        <ele>46.599998474121</ele>
        <time>2020-02-07T09:26:02.000Z</time>
      </trkpt>
      <trkpt lat="48.49091" lon="-2.57069">
        <ele>47.200000762939</ele>
        <time>2020-02-07T09:26:03.000Z</time>
      </trkpt>
      <trkpt lat="48.4909" lon="-2.57068">
        <ele>47.599998474121</ele>
        <time>2020-02-07T09:26:04.000Z</time>
      </trkpt>
      <trkpt lat="48.49088" lon="-2.57068">
        <ele>47.599998474121</ele>
        <time>2020-02-07T09:26:08.000Z</time>
      </trkpt>
      <trkpt lat="48.49087" lon="-2.57069">
        <ele>48</ele>
        <time>2020-02-07T09:26:10.000Z</time>
      </trkpt>
      <trkpt lat="48.49085" lon="-2.5707">
        <ele>48.400001525879</ele>
        <time>2020-02-07T09:26:11.000Z</time>
      </trkpt>
      <trkpt lat="48.49085" lon="-2.5707">
        <ele>48.799999237061</ele>
        <time>2020-02-07T09:26:12.000Z</time>
      </trkpt>
      <trkpt lat="48.49084" lon="-2.57071">
        <ele>49.200000762939</ele>
        <time>2020-02-07T09:26:13.000Z</time>
      </trkpt>
      <trkpt lat="48.49083" lon="-2.57071">
        <ele>49.599998474121</ele>
        <time>2020-02-07T09:26:14.000Z</time>
      </trkpt>
      <trkpt lat="48.49082" lon="-2.57073">
        <ele>49.599998474121</ele>
        <time>2020-02-07T09:26:17.000Z</time>
      </trkpt>
      <trkpt lat="48.49081" lon="-2.57075">
        <ele>49.599998474121</ele>
        <time>2020-02-07T09:26:24.000Z</time>
      </trkpt>
      <trkpt lat="48.49087" lon="-2.57086">
        <ele>49.599998474121</ele>
        <time>2020-02-07T09:26:29.000Z</time>
      </trkpt>
      <trkpt lat="48.49089" lon="-2.57094">
        <ele>49.599998474121</ele>
        <time>2020-02-07T09:26:32.000Z</time>
      </trkpt>
      <trkpt lat="48.49089" lon="-2.57096">
        <ele>49.200000762939</ele>
        <time>2020-02-07T09:26:33.000Z</time>
      </trkpt>
      <trkpt lat="48.49089" lon="-2.57098">
        <ele>48.799999237061</ele>
        <time>2020-02-07T09:26:34.000Z</time>
      </trkpt>
      <trkpt lat="48.49088" lon="-2.57099">
        <ele>48.400001525879</ele>
        <time>2020-02-07T09:26:35.000Z</time>
      </trkpt>
      <trkpt lat="48.49087" lon="-2.57101">
        <ele>48</ele>
        <time>2020-02-07T09:26:36.000Z</time>
      </trkpt>
      <trkpt lat="48.49087" lon="-2.57102">
        <ele>47.599998474121</ele>
        <time>2020-02-07T09:26:37.000Z</time>
      </trkpt>
      <trkpt lat="48.49085" lon="-2.57104">
        <ele>47.599998474121</ele>
        <time>2020-02-07T09:26:38.000Z</time>
      </trkpt>
      <trkpt lat="48.49085" lon="-2.57106">
        <ele>47.599998474121</ele>
        <time>2020-02-07T09:26:39.000Z</time>
      </trkpt>
      <trkpt lat="48.49084" lon="-2.57111">
        <ele>47.599998474121</ele>
        <time>2020-02-07T09:26:41.000Z</time>
      </trkpt>
      <trkpt lat="48.49083" lon="-2.5712">
        <ele>47.599998474121</ele>
        <time>2020-02-07T09:26:44.000Z</time>
      </trkpt>
      <trkpt lat="48.49084" lon="-2.57123">
        <ele>47.599998474121</ele>
        <time>2020-02-07T09:26:45.000Z</time>
      </trkpt>
      <trkpt lat="48.49081" lon="-2.57135">
        <ele>47.599998474121</ele>
        <time>2020-02-07T09:26:49.000Z</time>
      </trkpt>
      <trkpt lat="48.4908" lon="-2.57137">
        <ele>47.200000762939</ele>
        <time>2020-02-07T09:26:50.000Z</time>
      </trkpt>
      <trkpt lat="48.49079" lon="-2.57138">
        <ele>46.799999237061</ele>
        <time>2020-02-07T09:26:51.000Z</time>
      </trkpt>
      <trkpt lat="48.49077" lon="-2.57138">
        <ele>46.400001525879</ele>
        <time>2020-02-07T09:26:52.000Z</time>
      </trkpt>
      <trkpt lat="48.49077" lon="-2.5714">
        <ele>46</ele>
        <time>2020-02-07T09:26:53.000Z</time>
      </trkpt>
      <trkpt lat="48.49076" lon="-2.57142">
        <ele>45.400001525879</ele>
        <time>2020-02-07T09:26:54.000Z</time>
      </trkpt>
      <trkpt lat="48.49071" lon="-2.5715">
        <ele>45.400001525879</ele>
        <time>2020-02-07T09:26:59.000Z</time>
      </trkpt>
      <trkpt lat="48.49062" lon="-2.57164">
        <ele>45.400001525879</ele>
        <time>2020-02-07T09:27:07.000Z</time>
      </trkpt>
      <trkpt lat="48.49061" lon="-2.57164">
        <ele>45.400001525879</ele>
        <time>2020-02-07T09:27:08.000Z</time>
      </trkpt>
      <trkpt lat="48.49057" lon="-2.57163">
        <ele>45.400001525879</ele>
        <time>2020-02-07T09:27:12.000Z</time>
      </trkpt>
      <trkpt lat="48.49056" lon="-2.57163">
        <ele>45.400001525879</ele>
        <time>2020-02-07T09:27:13.000Z</time>
      </trkpt>
      <trkpt lat="48.49051" lon="-2.57158">
        <ele>45.400001525879</ele>
        <time>2020-02-07T09:27:19.000Z</time>
      </trkpt>
      <trkpt lat="48.49047" lon="-2.57153">
        <ele>46</ele>
        <time>2020-02-07T09:27:23.000Z</time>
      </trkpt>
      <trkpt lat="48.49046" lon="-2.57152">
        <ele>46.400001525879</ele>
        <time>2020-02-07T09:27:24.000Z</time>
      </trkpt>
      <trkpt lat="48.49045" lon="-2.57152">
        <ele>46.799999237061</ele>
        <time>2020-02-07T09:27:25.000Z</time>
      </trkpt>
      <trkpt lat="48.49044" lon="-2.57152">
        <ele>47.200000762939</ele>
        <time>2020-02-07T09:27:26.000Z</time>
      </trkpt>
      <trkpt lat="48.49043" lon="-2.57151">
        <ele>47.599998474121</ele>
        <time>2020-02-07T09:27:27.000Z</time>
      </trkpt>
      <trkpt lat="48.4904" lon="-2.57151">
        <ele>47.599998474121</ele>
        <time>2020-02-07T09:27:29.000Z</time>
      </trkpt>
      <trkpt lat="48.49036" lon="-2.5715">
        <ele>47.599998474121</ele>
        <time>2020-02-07T09:27:32.000Z</time>
      </trkpt>
      <trkpt lat="48.49033" lon="-2.57149">
        <ele>48</ele>
        <time>2020-02-07T09:27:34.000Z</time>
      </trkpt>
      <trkpt lat="48.49033" lon="-2.57148">
        <ele>48.400001525879</ele>
        <time>2020-02-07T09:27:35.000Z</time>
      </trkpt>
      <trkpt lat="48.49031" lon="-2.57148">
        <ele>48.799999237061</ele>
        <time>2020-02-07T09:27:36.000Z</time>
      </trkpt>
      <trkpt lat="48.49031" lon="-2.57148">
        <ele>49.200000762939</ele>
        <time>2020-02-07T09:27:37.000Z</time>
      </trkpt>
      <trkpt lat="48.49029" lon="-2.57148">
        <ele>49.799999237061</ele>
        <time>2020-02-07T09:27:38.000Z</time>
      </trkpt>
      <trkpt lat="48.49026" lon="-2.57146">
        <ele>49.799999237061</ele>
        <time>2020-02-07T09:27:40.000Z</time>
      </trkpt>
      <trkpt lat="48.49024" lon="-2.57144">
        <ele>49.799999237061</ele>
        <time>2020-02-07T09:27:42.000Z</time>
      </trkpt>
      <trkpt lat="48.4902" lon="-2.57139">
        <ele>49.799999237061</ele>
        <time>2020-02-07T09:27:46.000Z</time>
      </trkpt>
      <trkpt lat="48.49019" lon="-2.57138">
        <ele>50.200000762939</ele>
        <time>2020-02-07T09:27:47.000Z</time>
      </trkpt>
      <trkpt lat="48.49017" lon="-2.57137">
        <ele>50.599998474121</ele>
        <time>2020-02-07T09:27:48.000Z</time>
      </trkpt>
      <trkpt lat="48.49016" lon="-2.57136">
        <ele>51</ele>
        <time>2020-02-07T09:27:49.000Z</time>
      </trkpt>
      <trkpt lat="48.49014" lon="-2.57135">
        <ele>51.400001525879</ele>
        <time>2020-02-07T09:27:50.000Z</time>
      </trkpt>
      <trkpt lat="48.49013" lon="-2.57134">
        <ele>51.799999237061</ele>
        <time>2020-02-07T09:27:51.000Z</time>
      </trkpt>
      <trkpt lat="48.49011" lon="-2.57133">
        <ele>51.799999237061</ele>
        <time>2020-02-07T09:27:54.000Z</time>
      </trkpt>
      <trkpt lat="48.49011" lon="-2.57133">
        <ele>51.799999237061</ele>
        <time>2020-02-07T09:27:59.000Z</time>
      </trkpt>
      <trkpt lat="48.4901" lon="-2.57131">
        <ele>51.799999237061</ele>
        <time>2020-02-07T09:28:01.000Z</time>
      </trkpt>
      <trkpt lat="48.4901" lon="-2.57127">
        <ele>51.799999237061</ele>
        <time>2020-02-07T09:28:04.000Z</time>
      </trkpt>
      <trkpt lat="48.4901" lon="-2.57124">
        <ele>52.200000762939</ele>
        <time>2020-02-07T09:28:06.000Z</time>
      </trkpt>
      <trkpt lat="48.4901" lon="-2.57122">
        <ele>52.599998474121</ele>
        <time>2020-02-07T09:28:07.000Z</time>
      </trkpt>
      <trkpt lat="48.49011" lon="-2.57121">
        <ele>53</ele>
        <time>2020-02-07T09:28:08.000Z</time>
      </trkpt>
      <trkpt lat="48.49011" lon="-2.5712">
        <ele>53.400001525879</ele>
        <time>2020-02-07T09:28:09.000Z</time>
      </trkpt>
      <trkpt lat="48.49012" lon="-2.57119">
        <ele>54</ele>
        <time>2020-02-07T09:28:10.000Z</time>
      </trkpt>
      <trkpt lat="48.49011" lon="-2.57118">
        <ele>54</ele>
        <time>2020-02-07T09:28:11.000Z</time>
      </trkpt>
      <trkpt lat="48.4901" lon="-2.57114">
        <ele>54.400001525879</ele>
        <time>2020-02-07T09:28:15.000Z</time>
      </trkpt>
      <trkpt lat="48.49011" lon="-2.57114">
        <ele>54.799999237061</ele>
        <time>2020-02-07T09:28:16.000Z</time>
      </trkpt>
      <trkpt lat="48.49011" lon="-2.57114">
        <ele>55.200000762939</ele>
        <time>2020-02-07T09:28:17.000Z</time>
      </trkpt>
      <trkpt lat="48.49011" lon="-2.57114">
        <ele>55.599998474121</ele>
        <time>2020-02-07T09:28:18.000Z</time>
      </trkpt>
      <trkpt lat="48.49011" lon="-2.57114">
        <ele>56</ele>
        <time>2020-02-07T09:28:19.000Z</time>
      </trkpt>
      <trkpt lat="48.4901" lon="-2.57114">
        <ele>56</ele>
        <time>2020-02-07T09:28:21.000Z</time>
      </trkpt>
      <trkpt lat="48.49011" lon="-2.57114">
        <ele>56</ele>
        <time>2020-02-07T09:28:23.000Z</time>
      </trkpt>
      <trkpt lat="48.4901" lon="-2.57114">
        <ele>56</ele>
        <time>2020-02-07T09:28:28.000Z</time>
      </trkpt>
      <trkpt lat="48.4901" lon="-2.5711">
        <ele>56</ele>
        <time>2020-02-07T09:28:32.000Z</time>
      </trkpt>
      <trkpt lat="48.4901" lon="-2.57108">
        <ele>56</ele>
        <time>2020-02-07T09:28:33.000Z</time>
      </trkpt>
      <trkpt lat="48.4901" lon="-2.57097">
        <ele>56</ele>
        <time>2020-02-07T09:28:40.000Z</time>
      </trkpt>
      <trkpt lat="48.49011" lon="-2.57095">
        <ele>56.400001525879</ele>
        <time>2020-02-07T09:28:42.000Z</time>
      </trkpt>
      <trkpt lat="48.49011" lon="-2.57094">
        <ele>56.799999237061</ele>
        <time>2020-02-07T09:28:43.000Z</time>
      </trkpt>
      <trkpt lat="48.49012" lon="-2.57092">
        <ele>57.200000762939</ele>
        <time>2020-02-07T09:28:44.000Z</time>
      </trkpt>
      <trkpt lat="48.49013" lon="-2.57091">
        <ele>57.599998474121</ele>
        <time>2020-02-07T09:28:45.000Z</time>
      </trkpt>
      <trkpt lat="48.49013" lon="-2.5709">
        <ele>58</ele>
        <time>2020-02-07T09:28:46.000Z</time>
      </trkpt>
      <trkpt lat="48.49014" lon="-2.57084">
        <ele>58</ele>
        <time>2020-02-07T09:28:50.000Z</time>
      </trkpt>
      <trkpt lat="48.49014" lon="-2.57085">
        <ele>58</ele>
        <time>2020-02-07T09:28:56.000Z</time>
      </trkpt>
      <trkpt lat="48.49012" lon="-2.57085">
        <ele>58</ele>
        <time>2020-02-07T09:28:58.000Z</time>
      </trkpt>
      <trkpt lat="48.49011" lon="-2.57088">
        <ele>58</ele>
        <time>2020-02-07T09:29:00.000Z</time>
      </trkpt>
      <trkpt lat="48.4901" lon="-2.57089">
        <ele>58</ele>
        <time>2020-02-07T09:29:05.000Z</time>
      </trkpt>
      <trkpt lat="48.49004" lon="-2.57091">
        <ele>58</ele>
        <time>2020-02-07T09:29:12.000Z</time>
      </trkpt>
      <trkpt lat="48.49004" lon="-2.57092">
        <ele>58</ele>
        <time>2020-02-07T09:29:13.000Z</time>
      </trkpt>
      <trkpt lat="48.49001" lon="-2.57095">
        <ele>58</ele>
        <time>2020-02-07T09:29:17.000Z</time>
      </trkpt>
      <trkpt lat="48.48993" lon="-2.57101">
        <ele>58</ele>
        <time>2020-02-07T09:29:23.000Z</time>
      </trkpt>
      <trkpt lat="48.48985" lon="-2.571">
        <ele>58</ele>
        <time>2020-02-07T09:29:30.000Z</time>
      </trkpt>
      <trkpt lat="48.48981" lon="-2.57097">
        <ele>58</ele>
        <time>2020-02-07T09:29:36.000Z</time>
      </trkpt>
      <trkpt lat="48.4898" lon="-2.57099">
        <ele>58</ele>
        <time>2020-02-07T09:29:37.000Z</time>
      </trkpt>
      <trkpt lat="48.48981" lon="-2.57101">
        <ele>58</ele>
        <time>2020-02-07T09:29:39.000Z</time>
      </trkpt>
      <trkpt lat="48.48985" lon="-2.57112">
        <ele>58</ele>
        <time>2020-02-07T09:29:46.000Z</time>
      </trkpt>
      <trkpt lat="48.48988" lon="-2.57122">
        <ele>57.599998474121</ele>
        <time>2020-02-07T09:29:52.000Z</time>
      </trkpt>
      <trkpt lat="48.48989" lon="-2.57123">
        <ele>57.200000762939</ele>
        <time>2020-02-07T09:29:53.000Z</time>
      </trkpt>
      <trkpt lat="48.4899" lon="-2.57124">
        <ele>56.799999237061</ele>
        <time>2020-02-07T09:29:54.000Z</time>
      </trkpt>
      <trkpt lat="48.48991" lon="-2.57125">
        <ele>56.400001525879</ele>
        <time>2020-02-07T09:29:55.000Z</time>
      </trkpt>
      <trkpt lat="48.48992" lon="-2.57126">
        <ele>56</ele>
        <time>2020-02-07T09:29:56.000Z</time>
      </trkpt>
      <trkpt lat="48.48993" lon="-2.5713">
        <ele>56</ele>
        <time>2020-02-07T09:29:59.000Z</time>
      </trkpt>
      <trkpt lat="48.48989" lon="-2.57139">
        <ele>55.599998474121</ele>
        <time>2020-02-07T09:30:06.000Z</time>
      </trkpt>
      <trkpt lat="48.48988" lon="-2.5714">
        <ele>55.200000762939</ele>
        <time>2020-02-07T09:30:07.000Z</time>
      </trkpt>
      <trkpt lat="48.48987" lon="-2.5714">
        <ele>54.799999237061</ele>
        <time>2020-02-07T09:30:08.000Z</time>
      </trkpt>
      <trkpt lat="48.48986" lon="-2.57141">
        <ele>54.200000762939</ele>
        <time>2020-02-07T09:30:09.000Z</time>
      </trkpt>
      <trkpt lat="48.48985" lon="-2.57142">
        <ele>53.799999237061</ele>
        <time>2020-02-07T09:30:10.000Z</time>
      </trkpt>
      <trkpt lat="48.48984" lon="-2.57144">
        <ele>53.799999237061</ele>
        <time>2020-02-07T09:30:12.000Z</time>
      </trkpt>
      <trkpt lat="48.4898" lon="-2.57148">
        <ele>53.799999237061</ele>
        <time>2020-02-07T09:30:19.000Z</time>
      </trkpt>
      <trkpt lat="48.48979" lon="-2.57149">
        <ele>53.400001525879</ele>
        <time>2020-02-07T09:30:22.000Z</time>
      </trkpt>
      <trkpt lat="48.48979" lon="-2.57149">
        <ele>53</ele>
        <time>2020-02-07T09:30:23.000Z</time>
      </trkpt>
      <trkpt lat="48.48979" lon="-2.57149">
        <ele>52.599998474121</ele>
        <time>2020-02-07T09:30:24.000Z</time>
      </trkpt>
      <trkpt lat="48.48979" lon="-2.57149">
        <ele>52.200000762939</ele>
        <time>2020-02-07T09:30:25.000Z</time>
      </trkpt>
      <trkpt lat="48.48978" lon="-2.5715">
        <ele>51.799999237061</ele>
        <time>2020-02-07T09:30:26.000Z</time>
      </trkpt>
      <trkpt lat="48.48977" lon="-2.57153">
        <ele>51.799999237061</ele>
        <time>2020-02-07T09:30:30.000Z</time>
      </trkpt>
      <trkpt lat="48.48977" lon="-2.57154">
        <ele>51.200000762939</ele>
        <time>2020-02-07T09:30:34.000Z</time>
      </trkpt>
      <trkpt lat="48.48977" lon="-2.57154">
        <ele>50.799999237061</ele>
        <time>2020-02-07T09:30:35.000Z</time>
      </trkpt>
      <trkpt lat="48.48977" lon="-2.57154">
        <ele>50.400001525879</ele>
        <time>2020-02-07T09:30:36.000Z</time>
      </trkpt>
      <trkpt lat="48.48977" lon="-2.57154">
        <ele>50</ele>
        <time>2020-02-07T09:30:37.000Z</time>
      </trkpt>
      <trkpt lat="48.48977" lon="-2.57154">
        <ele>49.599998474121</ele>
        <time>2020-02-07T09:30:38.000Z</time>
      </trkpt>
      <trkpt lat="48.48977" lon="-2.57154">
        <ele>49.599998474121</ele>
        <time>2020-02-07T09:30:46.000Z</time>
      </trkpt>
      <trkpt lat="48.48978" lon="-2.57158">
        <ele>49.599998474121</ele>
        <time>2020-02-07T09:30:48.000Z</time>
      </trkpt>
      <trkpt lat="48.48977" lon="-2.57162">
        <ele>49.599998474121</ele>
        <time>2020-02-07T09:30:50.000Z</time>
      </trkpt>
      <trkpt lat="48.48978" lon="-2.57162">
        <ele>49.599998474121</ele>
        <time>2020-02-07T09:30:51.000Z</time>
      </trkpt>
      <trkpt lat="48.48978" lon="-2.57163">
        <ele>49.200000762939</ele>
        <time>2020-02-07T09:30:54.000Z</time>
      </trkpt>
      <trkpt lat="48.48977" lon="-2.57164">
        <ele>48.799999237061</ele>
        <time>2020-02-07T09:30:55.000Z</time>
      </trkpt>
      <trkpt lat="48.48977" lon="-2.57166">
        <ele>48.400001525879</ele>
        <time>2020-02-07T09:30:56.000Z</time>
      </trkpt>
      <trkpt lat="48.48978" lon="-2.57168">
        <ele>48</ele>
        <time>2020-02-07T09:30:57.000Z</time>
      </trkpt>
      <trkpt lat="48.48979" lon="-2.5717">
        <ele>47.400001525879</ele>
        <time>2020-02-07T09:30:58.000Z</time>
      </trkpt>
      <trkpt lat="48.4898" lon="-2.57172">
        <ele>47</ele>
        <time>2020-02-07T09:30:59.000Z</time>
      </trkpt>
      <trkpt lat="48.48979" lon="-2.57173">
        <ele>46.599998474121</ele>
        <time>2020-02-07T09:31:00.000Z</time>
      </trkpt>
      <trkpt lat="48.48978" lon="-2.57175">
        <ele>46.200000762939</ele>
        <time>2020-02-07T09:31:01.000Z</time>
      </trkpt>
      <trkpt lat="48.48977" lon="-2.57176">
        <ele>45.799999237061</ele>
        <time>2020-02-07T09:31:02.000Z</time>
      </trkpt>
      <trkpt lat="48.48977" lon="-2.57177">
        <ele>45.400001525879</ele>
        <time>2020-02-07T09:31:03.000Z</time>
      </trkpt>
      <trkpt lat="48.48974" lon="-2.57179">
        <ele>45</ele>
        <time>2020-02-07T09:31:06.000Z</time>
      </trkpt>
      <trkpt lat="48.48973" lon="-2.57178">
        <ele>44.599998474121</ele>
        <time>2020-02-07T09:31:07.000Z</time>
      </trkpt>
      <trkpt lat="48.48972" lon="-2.57178">
        <ele>44.200000762939</ele>
        <time>2020-02-07T09:31:08.000Z</time>
      </trkpt>
      <trkpt lat="48.48972" lon="-2.57178">
        <ele>43.599998474121</ele>
        <time>2020-02-07T09:31:09.000Z</time>
      </trkpt>
      <trkpt lat="48.4897" lon="-2.57179">
        <ele>43.200000762939</ele>
        <time>2020-02-07T09:31:10.000Z</time>
      </trkpt>
      <trkpt lat="48.48967" lon="-2.5718">
        <ele>43.200000762939</ele>
        <time>2020-02-07T09:31:12.000Z</time>
      </trkpt>
      <trkpt lat="48.48965" lon="-2.57185">
        <ele>43.200000762939</ele>
        <time>2020-02-07T09:31:15.000Z</time>
      </trkpt>
      <trkpt lat="48.48962" lon="-2.57194">
        <ele>43.200000762939</ele>
        <time>2020-02-07T09:31:18.000Z</time>
      </trkpt>
      <trkpt lat="48.48963" lon="-2.57202">
        <ele>42.799999237061</ele>
        <time>2020-02-07T09:31:21.000Z</time>
      </trkpt>
      <trkpt lat="48.48964" lon="-2.57205">
        <ele>42.400001525879</ele>
        <time>2020-02-07T09:31:22.000Z</time>
      </trkpt>
      <trkpt lat="48.48965" lon="-2.57207">
        <ele>42</ele>
        <time>2020-02-07T09:31:23.000Z</time>
      </trkpt>
      <trkpt lat="48.48966" lon="-2.57209">
        <ele>41.599998474121</ele>
        <time>2020-02-07T09:31:24.000Z</time>
      </trkpt>
      <trkpt lat="48.48968" lon="-2.5721">
        <ele>41.200000762939</ele>
        <time>2020-02-07T09:31:25.000Z</time>
      </trkpt>
      <trkpt lat="48.48972" lon="-2.57215">
        <ele>40.799999237061</ele>
        <time>2020-02-07T09:31:27.000Z</time>
      </trkpt>
      <trkpt lat="48.48973" lon="-2.57216">
        <ele>40.400001525879</ele>
        <time>2020-02-07T09:31:28.000Z</time>
      </trkpt>
      <trkpt lat="48.48975" lon="-2.57218">
        <ele>40</ele>
        <time>2020-02-07T09:31:29.000Z</time>
      </trkpt>
      <trkpt lat="48.48977" lon="-2.5722">
        <ele>39.400001525879</ele>
        <time>2020-02-07T09:31:30.000Z</time>
      </trkpt>
      <trkpt lat="48.48978" lon="-2.5722">
        <ele>39</ele>
        <time>2020-02-07T09:31:31.000Z</time>
      </trkpt>
      <trkpt lat="48.48979" lon="-2.57223">
        <ele>39</ele>
        <time>2020-02-07T09:31:32.000Z</time>
      </trkpt>
      <trkpt lat="48.48981" lon="-2.57225">
        <ele>38.599998474121</ele>
        <time>2020-02-07T09:31:33.000Z</time>
      </trkpt>
      <trkpt lat="48.48983" lon="-2.57227">
        <ele>38.200000762939</ele>
        <time>2020-02-07T09:31:34.000Z</time>
      </trkpt>
      <trkpt lat="48.48985" lon="-2.5723">
        <ele>37.799999237061</ele>
        <time>2020-02-07T09:31:35.000Z</time>
      </trkpt>
      <trkpt lat="48.48987" lon="-2.57232">
        <ele>37.400001525879</ele>
        <time>2020-02-07T09:31:36.000Z</time>
      </trkpt>
      <trkpt lat="48.48989" lon="-2.57233">
        <ele>37</ele>
        <time>2020-02-07T09:31:37.000Z</time>
      </trkpt>
      <trkpt lat="48.48992" lon="-2.57235">
        <ele>36.400001525879</ele>
        <time>2020-02-07T09:31:38.000Z</time>
      </trkpt>
      <trkpt lat="48.48994" lon="-2.57237">
        <ele>36</ele>
        <time>2020-02-07T09:31:39.000Z</time>
      </trkpt>
      <trkpt lat="48.48993" lon="-2.57237">
        <ele>35.599998474121</ele>
        <time>2020-02-07T09:31:40.000Z</time>
      </trkpt>
      <trkpt lat="48.48993" lon="-2.57238">
        <ele>35.200000762939</ele>
        <time>2020-02-07T09:31:41.000Z</time>
      </trkpt>
      <trkpt lat="48.48993" lon="-2.57238">
        <ele>34.799999237061</ele>
        <time>2020-02-07T09:31:42.000Z</time>
      </trkpt>
      <trkpt lat="48.48992" lon="-2.57245">
        <ele>34.799999237061</ele>
        <time>2020-02-07T09:31:45.000Z</time>
      </trkpt>
      <trkpt lat="48.48992" lon="-2.57247">
        <ele>34.799999237061</ele>
        <time>2020-02-07T09:31:46.000Z</time>
      </trkpt>
      <trkpt lat="48.48991" lon="-2.57247">
        <ele>34.799999237061</ele>
        <time>2020-02-07T09:31:47.000Z</time>
      </trkpt>
      <trkpt lat="48.48992" lon="-2.57249">
        <ele>34.799999237061</ele>
        <time>2020-02-07T09:31:50.000Z</time>
      </trkpt>
      <trkpt lat="48.48992" lon="-2.57253">
        <ele>34.799999237061</ele>
        <time>2020-02-07T09:31:55.000Z</time>
      </trkpt>
      <trkpt lat="48.48993" lon="-2.57255">
        <ele>34.400001525879</ele>
        <time>2020-02-07T09:31:56.000Z</time>
      </trkpt>
      <trkpt lat="48.48994" lon="-2.57257">
        <ele>33.799999237061</ele>
        <time>2020-02-07T09:31:57.000Z</time>
      </trkpt>
      <trkpt lat="48.48994" lon="-2.57258">
        <ele>33.400001525879</ele>
        <time>2020-02-07T09:31:58.000Z</time>
      </trkpt>
      <trkpt lat="48.48994" lon="-2.57259">
        <ele>32.799999237061</ele>
        <time>2020-02-07T09:31:59.000Z</time>
      </trkpt>
      <trkpt lat="48.48994" lon="-2.57259">
        <ele>32.400001525879</ele>
        <time>2020-02-07T09:32:00.000Z</time>
      </trkpt>
      <trkpt lat="48.48996" lon="-2.57261">
        <ele>32</ele>
        <time>2020-02-07T09:32:06.000Z</time>
      </trkpt>
      <trkpt lat="48.48996" lon="-2.57261">
        <ele>31.60000038147</ele>
        <time>2020-02-07T09:32:07.000Z</time>
      </trkpt>
      <trkpt lat="48.48996" lon="-2.57261">
        <ele>31.200000762939</ele>
        <time>2020-02-07T09:32:08.000Z</time>
      </trkpt>
      <trkpt lat="48.48996" lon="-2.57261">
        <ele>30.799999237061</ele>
        <time>2020-02-07T09:32:09.000Z</time>
      </trkpt>
      <trkpt lat="48.48997" lon="-2.57263">
        <ele>30.39999961853</ele>
        <time>2020-02-07T09:32:10.000Z</time>
      </trkpt>
      <trkpt lat="48.49001" lon="-2.57271">
        <ele>30.39999961853</ele>
        <time>2020-02-07T09:32:13.000Z</time>
      </trkpt>
      <trkpt lat="48.49003" lon="-2.57274">
        <ele>30.39999961853</ele>
        <time>2020-02-07T09:32:14.000Z</time>
      </trkpt>
      <trkpt lat="48.49004" lon="-2.57277">
        <ele>29.799999237061</ele>
        <time>2020-02-07T09:32:15.000Z</time>
      </trkpt>
      <trkpt lat="48.49005" lon="-2.57279">
        <ele>29.39999961853</ele>
        <time>2020-02-07T09:32:16.000Z</time>
      </trkpt>
      <trkpt lat="48.49006" lon="-2.57281">
        <ele>29</ele>
        <time>2020-02-07T09:32:17.000Z</time>
      </trkpt>
      <trkpt lat="48.49007" lon="-2.57282">
        <ele>28.60000038147</ele>
        <time>2020-02-07T09:32:18.000Z</time>
      </trkpt>
      <trkpt lat="48.49007" lon="-2.57284">
        <ele>28</ele>
        <time>2020-02-07T09:32:19.000Z</time>
      </trkpt>
      <trkpt lat="48.4901" lon="-2.57292">
        <ele>28</ele>
        <time>2020-02-07T09:32:23.000Z</time>
      </trkpt>
      <trkpt lat="48.49013" lon="-2.57293">
        <ele>27.60000038147</ele>
        <time>2020-02-07T09:32:25.000Z</time>
      </trkpt>
      <trkpt lat="48.49015" lon="-2.57294">
        <ele>27.200000762939</ele>
        <time>2020-02-07T09:32:26.000Z</time>
      </trkpt>
      <trkpt lat="48.49017" lon="-2.57294">
        <ele>26.799999237061</ele>
        <time>2020-02-07T09:32:27.000Z</time>
      </trkpt>
      <trkpt lat="48.49017" lon="-2.57294">
        <ele>26.39999961853</ele>
        <time>2020-02-07T09:32:28.000Z</time>
      </trkpt>
      <trkpt lat="48.49018" lon="-2.57295">
        <ele>25.799999237061</ele>
        <time>2020-02-07T09:32:29.000Z</time>
      </trkpt>
      <trkpt lat="48.4902" lon="-2.57302">
        <ele>25.799999237061</ele>
        <time>2020-02-07T09:32:34.000Z</time>
      </trkpt>
      <trkpt lat="48.4902" lon="-2.57302">
        <ele>25.39999961853</ele>
        <time>2020-02-07T09:32:35.000Z</time>
      </trkpt>
      <trkpt lat="48.4902" lon="-2.57302">
        <ele>25</ele>
        <time>2020-02-07T09:32:36.000Z</time>
      </trkpt>
      <trkpt lat="48.4902" lon="-2.57302">
        <ele>24.60000038147</ele>
        <time>2020-02-07T09:32:37.000Z</time>
      </trkpt>
      <trkpt lat="48.4902" lon="-2.57302">
        <ele>24.200000762939</ele>
        <time>2020-02-07T09:32:38.000Z</time>
      </trkpt>
      <trkpt lat="48.49021" lon="-2.57304">
        <ele>23.799999237061</ele>
        <time>2020-02-07T09:32:39.000Z</time>
      </trkpt>
      <trkpt lat="48.49021" lon="-2.57307">
        <ele>23.799999237061</ele>
        <time>2020-02-07T09:32:40.000Z</time>
      </trkpt>
      <trkpt lat="48.49019" lon="-2.57309">
        <ele>23.799999237061</ele>
        <time>2020-02-07T09:32:43.000Z</time>
      </trkpt>
      <trkpt lat="48.49019" lon="-2.57315">
        <ele>23.799999237061</ele>
        <time>2020-02-07T09:32:46.000Z</time>
      </trkpt>
      <trkpt lat="48.49021" lon="-2.57319">
        <ele>23.799999237061</ele>
        <time>2020-02-07T09:32:48.000Z</time>
      </trkpt>
      <trkpt lat="48.4902" lon="-2.57322">
        <ele>23.799999237061</ele>
        <time>2020-02-07T09:32:49.000Z</time>
      </trkpt>
      <trkpt lat="48.49018" lon="-2.57328">
        <ele>23.799999237061</ele>
        <time>2020-02-07T09:32:53.000Z</time>
      </trkpt>
      <trkpt lat="48.49012" lon="-2.57339">
        <ele>23.799999237061</ele>
        <time>2020-02-07T09:32:58.000Z</time>
      </trkpt>
      <trkpt lat="48.49009" lon="-2.57353">
        <ele>23.799999237061</ele>
        <time>2020-02-07T09:33:04.000Z</time>
      </trkpt>
      <trkpt lat="48.49008" lon="-2.57358">
        <ele>23.799999237061</ele>
        <time>2020-02-07T09:33:06.000Z</time>
      </trkpt>
      <trkpt lat="48.49004" lon="-2.57362">
        <ele>23.799999237061</ele>
        <time>2020-02-07T09:33:09.000Z</time>
      </trkpt>
      <trkpt lat="48.48996" lon="-2.57365">
        <ele>23.799999237061</ele>
        <time>2020-02-07T09:33:15.000Z</time>
      </trkpt>
      <trkpt lat="48.48994" lon="-2.57368">
        <ele>23.799999237061</ele>
        <time>2020-02-07T09:33:17.000Z</time>
      </trkpt>
      <trkpt lat="48.48992" lon="-2.57372">
        <ele>23.799999237061</ele>
        <time>2020-02-07T09:33:20.000Z</time>
      </trkpt>
      <trkpt lat="48.48991" lon="-2.57375">
        <ele>23.799999237061</ele>
        <time>2020-02-07T09:33:21.000Z</time>
      </trkpt>
      <trkpt lat="48.48991" lon="-2.57377">
        <ele>24.200000762939</ele>
        <time>2020-02-07T09:33:23.000Z</time>
      </trkpt>
      <trkpt lat="48.4899" lon="-2.57378">
        <ele>24.60000038147</ele>
        <time>2020-02-07T09:33:24.000Z</time>
      </trkpt>
      <trkpt lat="48.48989" lon="-2.57379">
        <ele>25</ele>
        <time>2020-02-07T09:33:25.000Z</time>
      </trkpt>
      <trkpt lat="48.48989" lon="-2.5738">
        <ele>25.39999961853</ele>
        <time>2020-02-07T09:33:26.000Z</time>
      </trkpt>
      <trkpt lat="48.48989" lon="-2.57381">
        <ele>25.799999237061</ele>
        <time>2020-02-07T09:33:27.000Z</time>
      </trkpt>
      <trkpt lat="48.48989" lon="-2.57389">
        <ele>25.799999237061</ele>
        <time>2020-02-07T09:33:33.000Z</time>
      </trkpt>
      <trkpt lat="48.48988" lon="-2.57396">
        <ele>25.799999237061</ele>
        <time>2020-02-07T09:33:40.000Z</time>
      </trkpt>
      <trkpt lat="48.48989" lon="-2.57399">
        <ele>25.799999237061</ele>
        <time>2020-02-07T09:33:43.000Z</time>
      </trkpt>
      <trkpt lat="48.48994" lon="-2.57402">
        <ele>25.799999237061</ele>
        <time>2020-02-07T09:33:45.000Z</time>
      </trkpt>
      <trkpt lat="48.49001" lon="-2.57411">
        <ele>25.39999961853</ele>
        <time>2020-02-07T09:33:50.000Z</time>
      </trkpt>
      <trkpt lat="48.49" lon="-2.57413">
        <ele>25</ele>
        <time>2020-02-07T09:33:51.000Z</time>
      </trkpt>
      <trkpt lat="48.49" lon="-2.57416">
        <ele>24.60000038147</ele>
        <time>2020-02-07T09:33:52.000Z</time>
      </trkpt>
      <trkpt lat="48.48999" lon="-2.57419">
        <ele>24.200000762939</ele>
        <time>2020-02-07T09:33:53.000Z</time>
      </trkpt>
      <trkpt lat="48.48999" lon="-2.57419">
        <ele>23.799999237061</ele>
        <time>2020-02-07T09:33:54.000Z</time>
      </trkpt>
      <trkpt lat="48.48999" lon="-2.57419">
        <ele>23.799999237061</ele>
        <time>2020-02-07T09:33:55.000Z</time>
      </trkpt>
      <trkpt lat="48.48995" lon="-2.57424">
        <ele>23.799999237061</ele>
        <time>2020-02-07T09:34:00.000Z</time>
      </trkpt>
      <trkpt lat="48.48994" lon="-2.57431">
        <ele>23.799999237061</ele>
        <time>2020-02-07T09:34:07.000Z</time>
      </trkpt>
      <trkpt lat="48.48994" lon="-2.57439">
        <ele>23.799999237061</ele>
        <time>2020-02-07T09:34:12.000Z</time>
      </trkpt>
      <trkpt lat="48.48994" lon="-2.57451">
        <ele>23.799999237061</ele>
        <time>2020-02-07T09:34:18.000Z</time>
      </trkpt>
      <trkpt lat="48.48994" lon="-2.57463">
        <ele>23.799999237061</ele>
        <time>2020-02-07T09:34:23.000Z</time>
      </trkpt>
      <trkpt lat="48.48995" lon="-2.57465">
        <ele>23.799999237061</ele>
        <time>2020-02-07T09:34:24.000Z</time>
      </trkpt>
      <trkpt lat="48.48994" lon="-2.57472">
        <ele>23.799999237061</ele>
        <time>2020-02-07T09:34:28.000Z</time>
      </trkpt>
      <trkpt lat="48.48991" lon="-2.57481">
        <ele>23.799999237061</ele>
        <time>2020-02-07T09:34:34.000Z</time>
      </trkpt>
      <trkpt lat="48.48991" lon="-2.57484">
        <ele>23.39999961853</ele>
        <time>2020-02-07T09:34:37.000Z</time>
      </trkpt>
      <trkpt lat="48.4899" lon="-2.57486">
        <ele>23</ele>
        <time>2020-02-07T09:34:38.000Z</time>
      </trkpt>
      <trkpt lat="48.4899" lon="-2.57487">
        <ele>22.60000038147</ele>
        <time>2020-02-07T09:34:39.000Z</time>
      </trkpt>
      <trkpt lat="48.4899" lon="-2.57489">
        <ele>22.200000762939</ele>
        <time>2020-02-07T09:34:40.000Z</time>
      </trkpt>
      <trkpt lat="48.4899" lon="-2.5749">
        <ele>21.799999237061</ele>
        <time>2020-02-07T09:34:41.000Z</time>
      </trkpt>
      <trkpt lat="48.48988" lon="-2.57494">
        <ele>21.799999237061</ele>
        <time>2020-02-07T09:34:44.000Z</time>
      </trkpt>
      <trkpt lat="48.48986" lon="-2.57499">
        <ele>21.799999237061</ele>
        <time>2020-02-07T09:34:49.000Z</time>
      </trkpt>
      <trkpt lat="48.48985" lon="-2.57501">
        <ele>21.799999237061</ele>
        <time>2020-02-07T09:34:51.000Z</time>
      </trkpt>
      <trkpt lat="48.48981" lon="-2.57509">
        <ele>21.799999237061</ele>
        <time>2020-02-07T09:34:54.000Z</time>
      </trkpt>
      <trkpt lat="48.48981" lon="-2.57511">
        <ele>21.799999237061</ele>
        <time>2020-02-07T09:34:55.000Z</time>
      </trkpt>
      <trkpt lat="48.48979" lon="-2.57519">
        <ele>21.799999237061</ele>
        <time>2020-02-07T09:34:57.000Z</time>
      </trkpt>
      <trkpt lat="48.48972" lon="-2.57535">
        <ele>21.799999237061</ele>
        <time>2020-02-07T09:35:03.000Z</time>
      </trkpt>
      <trkpt lat="48.4897" lon="-2.57554">
        <ele>21.799999237061</ele>
        <time>2020-02-07T09:35:08.000Z</time>
      </trkpt>
      <trkpt lat="48.4897" lon="-2.57557">
        <ele>21.799999237061</ele>
        <time>2020-02-07T09:35:09.000Z</time>
      </trkpt>
      <trkpt lat="48.48966" lon="-2.57577">
        <ele>21.799999237061</ele>
        <time>2020-02-07T09:35:15.000Z</time>
      </trkpt>
      <trkpt lat="48.48956" lon="-2.57582">
        <ele>21.799999237061</ele>
        <time>2020-02-07T09:35:19.000Z</time>
      </trkpt>
      <trkpt lat="48.48944" lon="-2.57583">
        <ele>21.799999237061</ele>
        <time>2020-02-07T09:35:24.000Z</time>
      </trkpt>
      <trkpt lat="48.48931" lon="-2.57591">
        <ele>21.799999237061</ele>
        <time>2020-02-07T09:35:30.000Z</time>
      </trkpt>
      <trkpt lat="48.48915" lon="-2.57592">
        <ele>21.799999237061</ele>
        <time>2020-02-07T09:35:36.000Z</time>
      </trkpt>
      <trkpt lat="48.48901" lon="-2.57586">
        <ele>21.799999237061</ele>
        <time>2020-02-07T09:35:42.000Z</time>
      </trkpt>
      <trkpt lat="48.4889" lon="-2.57584">
        <ele>22.60000038147</ele>
        <time>2020-02-07T09:35:49.000Z</time>
      </trkpt>
      <trkpt lat="48.48888" lon="-2.57585">
        <ele>23.200000762939</ele>
        <time>2020-02-07T09:35:50.000Z</time>
      </trkpt>
      <trkpt lat="48.48888" lon="-2.57585">
        <ele>23.60000038147</ele>
        <time>2020-02-07T09:35:51.000Z</time>
      </trkpt>
      <trkpt lat="48.48887" lon="-2.57584">
        <ele>24</ele>
        <time>2020-02-07T09:35:52.000Z</time>
      </trkpt>
      <trkpt lat="48.4888" lon="-2.57585">
        <ele>24</ele>
        <time>2020-02-07T09:35:56.000Z</time>
      </trkpt>
      <trkpt lat="48.48869" lon="-2.57589">
        <ele>24</ele>
        <time>2020-02-07T09:36:03.000Z</time>
      </trkpt>
      <trkpt lat="48.48855" lon="-2.57593">
        <ele>24</ele>
        <time>2020-02-07T09:36:11.000Z</time>
      </trkpt>
      <trkpt lat="48.48847" lon="-2.57596">
        <ele>24</ele>
        <time>2020-02-07T09:36:16.000Z</time>
      </trkpt>
      <trkpt lat="48.48838" lon="-2.576">
        <ele>24</ele>
        <time>2020-02-07T09:36:21.000Z</time>
      </trkpt>
      <trkpt lat="48.48828" lon="-2.57601">
        <ele>24</ele>
        <time>2020-02-07T09:36:26.000Z</time>
      </trkpt>
      <trkpt lat="48.48818" lon="-2.57602">
        <ele>24</ele>
        <time>2020-02-07T09:36:32.000Z</time>
      </trkpt>
      <trkpt lat="48.48811" lon="-2.57609">
        <ele>24</ele>
        <time>2020-02-07T09:36:38.000Z</time>
      </trkpt>
      <trkpt lat="48.48808" lon="-2.57615">
        <ele>23.60000038147</ele>
        <time>2020-02-07T09:36:42.000Z</time>
      </trkpt>
      <trkpt lat="48.48807" lon="-2.57615">
        <ele>23</ele>
        <time>2020-02-07T09:36:43.000Z</time>
      </trkpt>
      <trkpt lat="48.48806" lon="-2.57617">
        <ele>22.60000038147</ele>
        <time>2020-02-07T09:36:44.000Z</time>
      </trkpt>
      <trkpt lat="48.48804" lon="-2.57617">
        <ele>22.200000762939</ele>
        <time>2020-02-07T09:36:45.000Z</time>
      </trkpt>
      <trkpt lat="48.48803" lon="-2.57616">
        <ele>21.799999237061</ele>
        <time>2020-02-07T09:36:46.000Z</time>
      </trkpt>
      <trkpt lat="48.488" lon="-2.57618">
        <ele>21.799999237061</ele>
        <time>2020-02-07T09:36:48.000Z</time>
      </trkpt>
      <trkpt lat="48.48795" lon="-2.57619">
        <ele>21.799999237061</ele>
        <time>2020-02-07T09:36:50.000Z</time>
      </trkpt>
      <trkpt lat="48.4879" lon="-2.57619">
        <ele>21.799999237061</ele>
        <time>2020-02-07T09:36:53.000Z</time>
      </trkpt>
      <trkpt lat="48.48782" lon="-2.57617">
        <ele>21.799999237061</ele>
        <time>2020-02-07T09:36:59.000Z</time>
      </trkpt>
      <trkpt lat="48.48763" lon="-2.57603">
        <ele>21.799999237061</ele>
        <time>2020-02-07T09:37:07.000Z</time>
      </trkpt>
      <trkpt lat="48.48751" lon="-2.57595">
        <ele>21.799999237061</ele>
        <time>2020-02-07T09:37:13.000Z</time>
      </trkpt>
      <trkpt lat="48.48742" lon="-2.5759">
        <ele>21.799999237061</ele>
        <time>2020-02-07T09:37:18.000Z</time>
      </trkpt>
      <trkpt lat="48.48735" lon="-2.57584">
        <ele>21.799999237061</ele>
        <time>2020-02-07T09:37:23.000Z</time>
      </trkpt>
      <trkpt lat="48.48734" lon="-2.57583">
        <ele>21.799999237061</ele>
        <time>2020-02-07T09:37:24.000Z</time>
      </trkpt>
      <trkpt lat="48.48731" lon="-2.57579">
        <ele>21.799999237061</ele>
        <time>2020-02-07T09:37:28.000Z</time>
      </trkpt>
      <trkpt lat="48.48725" lon="-2.57574">
        <ele>21.799999237061</ele>
        <time>2020-02-07T09:37:33.000Z</time>
      </trkpt>
      <trkpt lat="48.48717" lon="-2.57567">
        <ele>21.799999237061</ele>
        <time>2020-02-07T09:37:39.000Z</time>
      </trkpt>
      <trkpt lat="48.48714" lon="-2.57561">
        <ele>21.799999237061</ele>
        <time>2020-02-07T09:37:44.000Z</time>
      </trkpt>
      <trkpt lat="48.48709" lon="-2.57552">
        <ele>21.799999237061</ele>
        <time>2020-02-07T09:37:49.000Z</time>
      </trkpt>
      <trkpt lat="48.48704" lon="-2.57546">
        <ele>21.799999237061</ele>
        <time>2020-02-07T09:37:53.000Z</time>
      </trkpt>
      <trkpt lat="48.487" lon="-2.57539">
        <ele>21.799999237061</ele>
        <time>2020-02-07T09:37:56.000Z</time>
      </trkpt>
      <trkpt lat="48.487" lon="-2.57537">
        <ele>21.799999237061</ele>
        <time>2020-02-07T09:37:57.000Z</time>
      </trkpt>
      <trkpt lat="48.48701" lon="-2.57534">
        <ele>21.799999237061</ele>
        <time>2020-02-07T09:38:00.000Z</time>
      </trkpt>
      <trkpt lat="48.48702" lon="-2.57532">
        <ele>21.799999237061</ele>
        <time>2020-02-07T09:38:01.000Z</time>
      </trkpt>
      <trkpt lat="48.48704" lon="-2.5753">
        <ele>22.200000762939</ele>
        <time>2020-02-07T09:38:03.000Z</time>
      </trkpt>
      <trkpt lat="48.48705" lon="-2.57528">
        <ele>22.60000038147</ele>
        <time>2020-02-07T09:38:04.000Z</time>
      </trkpt>
      <trkpt lat="48.48706" lon="-2.57527">
        <ele>23</ele>
        <time>2020-02-07T09:38:05.000Z</time>
      </trkpt>
      <trkpt lat="48.48707" lon="-2.57526">
        <ele>23.39999961853</ele>
        <time>2020-02-07T09:38:06.000Z</time>
      </trkpt>
      <trkpt lat="48.48709" lon="-2.57525">
        <ele>23.799999237061</ele>
        <time>2020-02-07T09:38:07.000Z</time>
      </trkpt>
      <trkpt lat="48.48717" lon="-2.57518">
        <ele>23.799999237061</ele>
        <time>2020-02-07T09:38:13.000Z</time>
      </trkpt>
      <trkpt lat="48.4872" lon="-2.57516">
        <ele>24.200000762939</ele>
        <time>2020-02-07T09:38:15.000Z</time>
      </trkpt>
      <trkpt lat="48.48721" lon="-2.57514">
        <ele>24.60000038147</ele>
        <time>2020-02-07T09:38:16.000Z</time>
      </trkpt>
      <trkpt lat="48.48722" lon="-2.57513">
        <ele>25.39999961853</ele>
        <time>2020-02-07T09:38:17.000Z</time>
      </trkpt>
      <trkpt lat="48.48724" lon="-2.57511">
        <ele>25.799999237061</ele>
        <time>2020-02-07T09:38:18.000Z</time>
      </trkpt>
      <trkpt lat="48.48725" lon="-2.57509">
        <ele>25.799999237061</ele>
        <time>2020-02-07T09:38:19.000Z</time>
      </trkpt>
      <trkpt lat="48.48729" lon="-2.57501">
        <ele>25.799999237061</ele>
        <time>2020-02-07T09:38:24.000Z</time>
      </trkpt>
      <trkpt lat="48.4873" lon="-2.575">
        <ele>25.799999237061</ele>
        <time>2020-02-07T09:38:25.000Z</time>
      </trkpt>
      <trkpt lat="48.48731" lon="-2.57498">
        <ele>26.39999961853</ele>
        <time>2020-02-07T09:38:26.000Z</time>
      </trkpt>
      <trkpt lat="48.48731" lon="-2.57496">
        <ele>26.799999237061</ele>
        <time>2020-02-07T09:38:27.000Z</time>
      </trkpt>
      <trkpt lat="48.48732" lon="-2.57495">
        <ele>27.200000762939</ele>
        <time>2020-02-07T09:38:28.000Z</time>
      </trkpt>
      <trkpt lat="48.48733" lon="-2.57493">
        <ele>27.60000038147</ele>
        <time>2020-02-07T09:38:29.000Z</time>
      </trkpt>
      <trkpt lat="48.48734" lon="-2.57492">
        <ele>28</ele>
        <time>2020-02-07T09:38:30.000Z</time>
      </trkpt>
      <trkpt lat="48.48738" lon="-2.57485">
        <ele>28</ele>
        <time>2020-02-07T09:38:34.000Z</time>
      </trkpt>
      <trkpt lat="48.48739" lon="-2.57483">
        <ele>28</ele>
        <time>2020-02-07T09:38:36.000Z</time>
      </trkpt>
      <trkpt lat="48.4874" lon="-2.57481">
        <ele>28.39999961853</ele>
        <time>2020-02-07T09:38:37.000Z</time>
      </trkpt>
      <trkpt lat="48.48741" lon="-2.5748">
        <ele>29</ele>
        <time>2020-02-07T09:38:38.000Z</time>
      </trkpt>
      <trkpt lat="48.48741" lon="-2.57478">
        <ele>29.39999961853</ele>
        <time>2020-02-07T09:38:39.000Z</time>
      </trkpt>
      <trkpt lat="48.48742" lon="-2.57477">
        <ele>29.799999237061</ele>
        <time>2020-02-07T09:38:40.000Z</time>
      </trkpt>
      <trkpt lat="48.48743" lon="-2.57475">
        <ele>30.200000762939</ele>
        <time>2020-02-07T09:38:41.000Z</time>
      </trkpt>
      <trkpt lat="48.48746" lon="-2.57468">
        <ele>30.60000038147</ele>
        <time>2020-02-07T09:38:46.000Z</time>
      </trkpt>
      <trkpt lat="48.48747" lon="-2.57467">
        <ele>31.200000762939</ele>
        <time>2020-02-07T09:38:47.000Z</time>
      </trkpt>
      <trkpt lat="48.48747" lon="-2.57465">
        <ele>31.60000038147</ele>
        <time>2020-02-07T09:38:48.000Z</time>
      </trkpt>
      <trkpt lat="48.48748" lon="-2.57463">
        <ele>32</ele>
        <time>2020-02-07T09:38:49.000Z</time>
      </trkpt>
      <trkpt lat="48.48749" lon="-2.57462">
        <ele>32.400001525879</ele>
        <time>2020-02-07T09:38:50.000Z</time>
      </trkpt>
      <trkpt lat="48.48751" lon="-2.57455">
        <ele>32.400001525879</ele>
        <time>2020-02-07T09:38:54.000Z</time>
      </trkpt>
      <trkpt lat="48.48753" lon="-2.5745">
        <ele>33</ele>
        <time>2020-02-07T09:38:57.000Z</time>
      </trkpt>
      <trkpt lat="48.48754" lon="-2.57448">
        <ele>33.400001525879</ele>
        <time>2020-02-07T09:38:58.000Z</time>
      </trkpt>
      <trkpt lat="48.48754" lon="-2.57447">
        <ele>33.799999237061</ele>
        <time>2020-02-07T09:38:59.000Z</time>
      </trkpt>
      <trkpt lat="48.48755" lon="-2.57445">
        <ele>34.200000762939</ele>
        <time>2020-02-07T09:39:00.000Z</time>
      </trkpt>
      <trkpt lat="48.48755" lon="-2.57444">
        <ele>34.599998474121</ele>
        <time>2020-02-07T09:39:01.000Z</time>
      </trkpt>
      <trkpt lat="48.48756" lon="-2.57442">
        <ele>34.599998474121</ele>
        <time>2020-02-07T09:39:02.000Z</time>
      </trkpt>
      <trkpt lat="48.48759" lon="-2.57434">
        <ele>35.599998474121</ele>
        <time>2020-02-07T09:39:07.000Z</time>
      </trkpt>
      <trkpt lat="48.4876" lon="-2.57432">
        <ele>36</ele>
        <time>2020-02-07T09:39:08.000Z</time>
      </trkpt>
      <trkpt lat="48.4876" lon="-2.57431">
        <ele>36.400001525879</ele>
        <time>2020-02-07T09:39:09.000Z</time>
      </trkpt>
      <trkpt lat="48.48761" lon="-2.57429">
        <ele>36.799999237061</ele>
        <time>2020-02-07T09:39:10.000Z</time>
      </trkpt>
      <trkpt lat="48.48763" lon="-2.57418">
        <ele>37.200000762939</ele>
        <time>2020-02-07T09:39:16.000Z</time>
      </trkpt>
      <trkpt lat="48.48764" lon="-2.57417">
        <ele>37.599998474121</ele>
        <time>2020-02-07T09:39:17.000Z</time>
      </trkpt>
      <trkpt lat="48.48764" lon="-2.57415">
        <ele>38</ele>
        <time>2020-02-07T09:39:18.000Z</time>
      </trkpt>
      <trkpt lat="48.48765" lon="-2.57414">
        <ele>38.400001525879</ele>
        <time>2020-02-07T09:39:19.000Z</time>
      </trkpt>
      <trkpt lat="48.48766" lon="-2.57412">
        <ele>39</ele>
        <time>2020-02-07T09:39:20.000Z</time>
      </trkpt>
      <trkpt lat="48.48768" lon="-2.57406">
        <ele>39</ele>
        <time>2020-02-07T09:39:24.000Z</time>
      </trkpt>
      <trkpt lat="48.48769" lon="-2.57404">
        <ele>39.400001525879</ele>
        <time>2020-02-07T09:39:25.000Z</time>
      </trkpt>
      <trkpt lat="48.48769" lon="-2.57403">
        <ele>39.799999237061</ele>
        <time>2020-02-07T09:39:26.000Z</time>
      </trkpt>
      <trkpt lat="48.4877" lon="-2.57401">
        <ele>40.200000762939</ele>
        <time>2020-02-07T09:39:27.000Z</time>
      </trkpt>
      <trkpt lat="48.4877" lon="-2.574">
        <ele>40.599998474121</ele>
        <time>2020-02-07T09:39:28.000Z</time>
      </trkpt>
      <trkpt lat="48.48771" lon="-2.57398">
        <ele>41.200000762939</ele>
        <time>2020-02-07T09:39:29.000Z</time>
      </trkpt>
      <trkpt lat="48.48773" lon="-2.57393">
        <ele>41.200000762939</ele>
        <time>2020-02-07T09:39:32.000Z</time>
      </trkpt>
      <trkpt lat="48.48774" lon="-2.5739">
        <ele>41.599998474121</ele>
        <time>2020-02-07T09:39:34.000Z</time>
      </trkpt>
      <trkpt lat="48.48774" lon="-2.57388">
        <ele>42</ele>
        <time>2020-02-07T09:39:35.000Z</time>
      </trkpt>
      <trkpt lat="48.48775" lon="-2.57387">
        <ele>42.400001525879</ele>
        <time>2020-02-07T09:39:36.000Z</time>
      </trkpt>
      <trkpt lat="48.48776" lon="-2.57385">
        <ele>42.799999237061</ele>
        <time>2020-02-07T09:39:37.000Z</time>
      </trkpt>
      <trkpt lat="48.48776" lon="-2.57383">
        <ele>43.400001525879</ele>
        <time>2020-02-07T09:39:38.000Z</time>
      </trkpt>
      <trkpt lat="48.48777" lon="-2.5738">
        <ele>43.400001525879</ele>
        <time>2020-02-07T09:39:40.000Z</time>
      </trkpt>
      <trkpt lat="48.4878" lon="-2.57374">
        <ele>43.799999237061</ele>
        <time>2020-02-07T09:39:44.000Z</time>
      </trkpt>
      <trkpt lat="48.4878" lon="-2.57372">
        <ele>44.200000762939</ele>
        <time>2020-02-07T09:39:45.000Z</time>
      </trkpt>
      <trkpt lat="48.48781" lon="-2.57371">
        <ele>44.599998474121</ele>
        <time>2020-02-07T09:39:46.000Z</time>
      </trkpt>
      <trkpt lat="48.48781" lon="-2.57369">
        <ele>45</ele>
        <time>2020-02-07T09:39:47.000Z</time>
      </trkpt>
      <trkpt lat="48.48782" lon="-2.57367">
        <ele>45.400001525879</ele>
        <time>2020-02-07T09:39:48.000Z</time>
      </trkpt>
      <trkpt lat="48.48785" lon="-2.57358">
        <ele>45.400001525879</ele>
        <time>2020-02-07T09:39:53.000Z</time>
      </trkpt>
      <trkpt lat="48.4879" lon="-2.57345">
        <ele>45.400001525879</ele>
        <time>2020-02-07T09:40:00.000Z</time>
      </trkpt>
      <trkpt lat="48.4879" lon="-2.57342">
        <ele>45.799999237061</ele>
        <time>2020-02-07T09:40:01.000Z</time>
      </trkpt>
      <trkpt lat="48.48791" lon="-2.5734">
        <ele>46.200000762939</ele>
        <time>2020-02-07T09:40:02.000Z</time>
      </trkpt>
      <trkpt lat="48.48792" lon="-2.57338">
        <ele>46.599998474121</ele>
        <time>2020-02-07T09:40:03.000Z</time>
      </trkpt>
      <trkpt lat="48.48792" lon="-2.57336">
        <ele>47</ele>
        <time>2020-02-07T09:40:04.000Z</time>
      </trkpt>
      <trkpt lat="48.48793" lon="-2.57334">
        <ele>47.400001525879</ele>
        <time>2020-02-07T09:40:05.000Z</time>
      </trkpt>
      <trkpt lat="48.48797" lon="-2.57325">
        <ele>47.400001525879</ele>
        <time>2020-02-07T09:40:10.000Z</time>
      </trkpt>
      <trkpt lat="48.48802" lon="-2.5731">
        <ele>47.400001525879</ele>
        <time>2020-02-07T09:40:17.000Z</time>
      </trkpt>
      <trkpt lat="48.48803" lon="-2.57308">
        <ele>47.400001525879</ele>
        <time>2020-02-07T09:40:18.000Z</time>
      </trkpt>
      <trkpt lat="48.48807" lon="-2.57295">
        <ele>47.799999237061</ele>
        <time>2020-02-07T09:40:24.000Z</time>
      </trkpt>
      <trkpt lat="48.48808" lon="-2.57293">
        <ele>48.200000762939</ele>
        <time>2020-02-07T09:40:25.000Z</time>
      </trkpt>
      <trkpt lat="48.48809" lon="-2.57291">
        <ele>48.599998474121</ele>
        <time>2020-02-07T09:40:26.000Z</time>
      </trkpt>
      <trkpt lat="48.48809" lon="-2.57289">
        <ele>49</ele>
        <time>2020-02-07T09:40:27.000Z</time>
      </trkpt>
      <trkpt lat="48.4881" lon="-2.57287">
        <ele>49.400001525879</ele>
        <time>2020-02-07T09:40:28.000Z</time>
      </trkpt>
      <trkpt lat="48.48812" lon="-2.5728">
        <ele>49.400001525879</ele>
        <time>2020-02-07T09:40:31.000Z</time>
      </trkpt>
      <trkpt lat="48.48817" lon="-2.57267">
        <ele>49.400001525879</ele>
        <time>2020-02-07T09:40:38.000Z</time>
      </trkpt>
      <trkpt lat="48.48822" lon="-2.57252">
        <ele>49.799999237061</ele>
        <time>2020-02-07T09:40:45.000Z</time>
      </trkpt>
      <trkpt lat="48.48822" lon="-2.57249">
        <ele>50.200000762939</ele>
        <time>2020-02-07T09:40:46.000Z</time>
      </trkpt>
      <trkpt lat="48.48823" lon="-2.57247">
        <ele>50.599998474121</ele>
        <time>2020-02-07T09:40:47.000Z</time>
      </trkpt>
      <trkpt lat="48.48824" lon="-2.57245">
        <ele>51.200000762939</ele>
        <time>2020-02-07T09:40:48.000Z</time>
      </trkpt>
      <trkpt lat="48.48825" lon="-2.57243">
        <ele>51.599998474121</ele>
        <time>2020-02-07T09:40:49.000Z</time>
      </trkpt>
      <trkpt lat="48.48827" lon="-2.57236">
        <ele>51.599998474121</ele>
        <time>2020-02-07T09:40:52.000Z</time>
      </trkpt>
      <trkpt lat="48.48832" lon="-2.57222">
        <ele>51.599998474121</ele>
        <time>2020-02-07T09:40:59.000Z</time>
      </trkpt>
      <trkpt lat="48.48838" lon="-2.57203">
        <ele>51.599998474121</ele>
        <time>2020-02-07T09:41:07.000Z</time>
      </trkpt>
      <trkpt lat="48.48841" lon="-2.57194">
        <ele>52</ele>
        <time>2020-02-07T09:41:11.000Z</time>
      </trkpt>
      <trkpt lat="48.48842" lon="-2.57192">
        <ele>52.400001525879</ele>
        <time>2020-02-07T09:41:12.000Z</time>
      </trkpt>
      <trkpt lat="48.48842" lon="-2.57189">
        <ele>52.799999237061</ele>
        <time>2020-02-07T09:41:13.000Z</time>
      </trkpt>
      <trkpt lat="48.48843" lon="-2.57187">
        <ele>53.200000762939</ele>
        <time>2020-02-07T09:41:14.000Z</time>
      </trkpt>
      <trkpt lat="48.48844" lon="-2.57184">
        <ele>53.599998474121</ele>
        <time>2020-02-07T09:41:15.000Z</time>
      </trkpt>
      <trkpt lat="48.48851" lon="-2.57166">
        <ele>53.599998474121</ele>
        <time>2020-02-07T09:41:23.000Z</time>
      </trkpt>
      <trkpt lat="48.48857" lon="-2.57147">
        <ele>54</ele>
        <time>2020-02-07T09:41:31.000Z</time>
      </trkpt>
      <trkpt lat="48.48858" lon="-2.57144">
        <ele>54.400001525879</ele>
        <time>2020-02-07T09:41:32.000Z</time>
      </trkpt>
      <trkpt lat="48.48859" lon="-2.57142">
        <ele>54.799999237061</ele>
        <time>2020-02-07T09:41:33.000Z</time>
      </trkpt>
      <trkpt lat="48.48859" lon="-2.5714">
        <ele>55.200000762939</ele>
        <time>2020-02-07T09:41:34.000Z</time>
      </trkpt>
      <trkpt lat="48.4886" lon="-2.57138">
        <ele>55.599998474121</ele>
        <time>2020-02-07T09:41:35.000Z</time>
      </trkpt>
      <trkpt lat="48.48864" lon="-2.57123">
        <ele>55.599998474121</ele>
        <time>2020-02-07T09:41:41.000Z</time>
      </trkpt>
      <trkpt lat="48.48872" lon="-2.57106">
        <ele>55.599998474121</ele>
        <time>2020-02-07T09:41:48.000Z</time>
      </trkpt>
      <trkpt lat="48.48876" lon="-2.5709">
        <ele>55.599998474121</ele>
        <time>2020-02-07T09:41:54.000Z</time>
      </trkpt>
      <trkpt lat="48.48882" lon="-2.57075">
        <ele>56.400001525879</ele>
        <time>2020-02-07T09:42:00.000Z</time>
      </trkpt>
      <trkpt lat="48.48883" lon="-2.57073">
        <ele>56.799999237061</ele>
        <time>2020-02-07T09:42:01.000Z</time>
      </trkpt>
      <trkpt lat="48.48884" lon="-2.5707">
        <ele>57.200000762939</ele>
        <time>2020-02-07T09:42:02.000Z</time>
      </trkpt>
      <trkpt lat="48.48885" lon="-2.57068">
        <ele>57.599998474121</ele>
        <time>2020-02-07T09:42:03.000Z</time>
      </trkpt>
      <trkpt lat="48.48893" lon="-2.57051">
        <ele>57.599998474121</ele>
        <time>2020-02-07T09:42:10.000Z</time>
      </trkpt>
      <trkpt lat="48.48902" lon="-2.57033">
        <ele>57.599998474121</ele>
        <time>2020-02-07T09:42:18.000Z</time>
      </trkpt>
      <trkpt lat="48.48911" lon="-2.57024">
        <ele>57.599998474121</ele>
        <time>2020-02-07T09:42:24.000Z</time>
      </trkpt>
      <trkpt lat="48.48922" lon="-2.57017">
        <ele>57.599998474121</ele>
        <time>2020-02-07T09:42:31.000Z</time>
      </trkpt>
      <trkpt lat="48.48923" lon="-2.57007">
        <ele>57.599998474121</ele>
        <time>2020-02-07T09:42:35.000Z</time>
      </trkpt>
      <trkpt lat="48.48921" lon="-2.57003">
        <ele>58</ele>
        <time>2020-02-07T09:42:37.000Z</time>
      </trkpt>
      <trkpt lat="48.4892" lon="-2.57001">
        <ele>58.400001525879</ele>
        <time>2020-02-07T09:42:38.000Z</time>
      </trkpt>
      <trkpt lat="48.48919" lon="-2.56999">
        <ele>58.799999237061</ele>
        <time>2020-02-07T09:42:39.000Z</time>
      </trkpt>
      <trkpt lat="48.48918" lon="-2.56998">
        <ele>59.200000762939</ele>
        <time>2020-02-07T09:42:40.000Z</time>
      </trkpt>
      <trkpt lat="48.48917" lon="-2.56996">
        <ele>59.799999237061</ele>
        <time>2020-02-07T09:42:41.000Z</time>
      </trkpt>
      <trkpt lat="48.48917" lon="-2.56994">
        <ele>59.799999237061</ele>
        <time>2020-02-07T09:42:42.000Z</time>
      </trkpt>
      <trkpt lat="48.48918" lon="-2.56984">
        <ele>59.799999237061</ele>
        <time>2020-02-07T09:42:48.000Z</time>
      </trkpt>
      <trkpt lat="48.48918" lon="-2.56984">
        <ele>59.799999237061</ele>
        <time>2020-02-07T09:42:49.000Z</time>
      </trkpt>
      <trkpt lat="48.48918" lon="-2.56983">
        <ele>59.799999237061</ele>
        <time>2020-02-07T09:42:58.000Z</time>
      </trkpt>
      <trkpt lat="48.48918" lon="-2.56983">
        <ele>59.799999237061</ele>
        <time>2020-02-07T09:43:13.000Z</time>
      </trkpt>
      <trkpt lat="48.48918" lon="-2.56983">
        <ele>59.799999237061</ele>
        <time>2020-02-07T09:43:19.000Z</time>
      </trkpt>
      <trkpt lat="48.48918" lon="-2.56983">
        <ele>59.799999237061</ele>
        <time>2020-02-07T09:43:30.000Z</time>
      </trkpt>
      <trkpt lat="48.48918" lon="-2.56983">
        <ele>59.799999237061</ele>
        <time>2020-02-07T09:43:43.000Z</time>
      </trkpt>
      <trkpt lat="48.48918" lon="-2.56983">
        <ele>59.799999237061</ele>
        <time>2020-02-07T09:44:00.000Z</time>
      </trkpt>
      <trkpt lat="48.48918" lon="-2.56983">
        <ele>59.799999237061</ele>
        <time>2020-02-07T09:44:10.000Z</time>
      </trkpt>
      <trkpt lat="48.48918" lon="-2.56983">
        <ele>59.799999237061</ele>
        <time>2020-02-07T09:44:27.000Z</time>
      </trkpt>
      <trkpt lat="48.48918" lon="-2.56983">
        <ele>59.799999237061</ele>
        <time>2020-02-07T09:44:41.000Z</time>
      </trkpt>
      <trkpt lat="48.48918" lon="-2.56983">
        <ele>59.799999237061</ele>
        <time>2020-02-07T09:44:55.000Z</time>
      </trkpt>
      <trkpt lat="48.48918" lon="-2.56983">
        <ele>59.799999237061</ele>
        <time>2020-02-07T09:45:04.000Z</time>
      </trkpt>
    </trkseg>
  </trk>
</gpx>